Observation data for Hackberry on 05/24/2020      Previous  Date  Next       Current Mesonet Observations  Soil Data  Daily Summary Page  Observations in Plain Language
KHA3 240500Z 08016KT 19/15 A2974 RMK A01 T01920145  RH  075%=      5-min Rain = 0
KHA3 240501Z 09014KT 19/15 A2975 RMK A01 T01930146  RH  074%=      5-min Rain = 0
KHA3 240502Z 09015KT 19/15 A2975 RMK A01 T01930145  RH  074%=      5-min Rain = 0
KHA3 240503Z 10017G23KT 19/15 A2974 RMK A01 T01930145  RH  073%=      5-min Rain = 0
KHA3 240504Z 11018G23KT 19/15 A2974 RMK A01 T01940146  RH  074%=      5-min Rain = 0
KHA3 240505Z 12016KT 19/15 A2974 RMK A01 T01940145  RH  073%=      5-min Rain = 0
KHA3 240506Z 13014KT 19/15 A2974 RMK A01 T01940146  RH  074%=      5-min Rain = 0
KHA3 240507Z 13016KT 19/15 A2974 RMK A01 T01920149  RH  076%=      5-min Rain = 0
KHA3 240508Z 13016KT 19/15 A2974 RMK A01 T01890150  RH  078%=      5-min Rain = 0
KHA3 240509Z 13017KT 19/15 A2974 RMK A01 T01880150  RH  079%=      5-min Rain = 0
KHA3 240510Z 13015KT 19/15 A2974 RMK A01 T01870150  RH  079%=      5-min Rain = 0
KHA3 240511Z 13015KT 19/15 A2974 RMK A01 T01870147  RH  078%=      5-min Rain = 0
KHA3 240512Z 12017G22KT 19/15 A2974 RMK A01 T01890146  RH  076%=      5-min Rain = 0
KHA3 240513Z 11018KT 19/15 A2975 RMK A01 T01900148  RH  077%=      5-min Rain = 0
KHA3 240514Z 12016KT 19/15 A2975 RMK A01 T01900146  RH  076%=      5-min Rain = 0
KHA3 240515Z 11015KT 19/15 A2975 RMK A01 T01900148  RH  076%=      5-min Rain = 0
KHA3 240516Z 11014KT 19/15 A2975 RMK A01 T01900148  RH  077%=      5-min Rain = 0
KHA3 240517Z 11012KT 19/15 A2975 RMK A01 T01890148  RH  077%=      5-min Rain = 0
KHA3 240518Z 11013KT 19/15 A2976 RMK A01 T01880147  RH  077%=      5-min Rain = 0
KHA3 240519Z 13014KT 19/15 A2976 RMK A01 T01890145  RH  075%=      5-min Rain = 0
KHA3 240520Z 14014KT 19/14 A2976 RMK A01 T01910143  RH  074%=      5-min Rain = 0
KHA3 240521Z 14016KT 19/15 A2976 RMK A01 T01930147  RH  074%=      5-min Rain = 0
KHA3 240522Z 14014KT 19/15 A2976 RMK A01 T01920148  RH  076%=      5-min Rain = 0
KHA3 240523Z 13015KT 19/14 A2977 RMK A01 T01910144  RH  074%=      5-min Rain = 0
KHA3 240524Z 13014KT 19/14 A2977 RMK A01 T01930144  RH  074%=      5-min Rain = 0
KHA3 240525Z 12014KT 19/14 A2977 RMK A01 T01930144  RH  073%=      5-min Rain = 0
KHA3 240526Z 12014KT 20/14 A2977 RMK A01 T01950142  RH  072%=      5-min Rain = 0
KHA3 240527Z 11015KT 20/14 A2976 RMK A01 T01950143  RH  072%=      5-min Rain = 0
KHA3 240528Z 11013KT 20/14 A2976 RMK A01 T01950144  RH  072%=      5-min Rain = 0
KHA3 240529Z 11014KT 19/14 A2976 RMK A01 T01940144  RH  073%=      5-min Rain = 0
KHA3 240530Z 10013KT 19/14 A2976 RMK A01 T01940143  RH  072%=      5-min Rain = 0
KHA3 240531Z 10013KT 19/14 A2976 RMK A01 T01940144  RH  073%=      5-min Rain = 0
KHA3 240532Z 10012KT 19/14 A2976 RMK A01 T01940144  RH  073%=      5-min Rain = 0
KHA3 240533Z 10013KT 19/14 A2976 RMK A01 T01930144  RH  073%=      5-min Rain = 0
KHA3 240534Z 11012KT 19/15 A2976 RMK A01 T01930145  RH  074%=      5-min Rain = 0
KHA3 240535Z 11013KT 19/15 A2976 RMK A01 T01920145  RH  074%=      5-min Rain = 0
KHA3 240536Z 11013KT 19/15 A2977 RMK A01 T01920145  RH  074%=      5-min Rain = 0
KHA3 240537Z 11013KT 19/14 A2977 RMK A01 T01920144  RH  074%=      5-min Rain = 0
KHA3 240538Z 12013KT 19/14 A2977 RMK A01 T01920143  RH  073%=      5-min Rain = 0
KHA3 240539Z 13013KT 19/14 A2977 RMK A01 T01930143  RH  073%=      5-min Rain = 0
KHA3 240540Z 13014KT 19/14 A2977 RMK A01 T01940141  RH  071%=      5-min Rain = 0
KHA3 240541Z 14014KT 20/14 A2978 RMK A01 T01960140  RH  070%=      5-min Rain = 0
KHA3 240542Z 13016KT 20/14 A2978 RMK A01 T01970141  RH  070%=      5-min Rain = 0
KHA3 240543Z 13016KT 20/14 A2978 RMK A01 T01970140  RH  069%=      5-min Rain = 0
KHA3 240544Z 13018KT 20/14 A2978 RMK A01 T01980140  RH  069%=      5-min Rain = 0
KHA3 240545Z 12017KT 20/14 A2978 RMK A01 T01980139  RH  069%=      5-min Rain = 0
KHA3 240546Z 11018KT 20/14 A2978 RMK A01 T01980139  RH  069%=      5-min Rain = 0
KHA3 240547Z 10017G22KT 20/14 A2977 RMK A01 T01990138  RH  068%=      5-min Rain = 0
KHA3 240548Z 10018KT 20/14 A2977 RMK A01 T02000138  RH  067%=      5-min Rain = 0
KHA3 240549Z 11016KT 20/14 A2977 RMK A01 T02010138  RH  067%=      5-min Rain = 0
KHA3 240550Z 11016KT 20/14 A2978 RMK A01 T02000140  RH  068%=      5-min Rain = 0
KHA3 240551Z 11016KT 20/14 A2978 RMK A01 T01990141  RH  069%=      5-min Rain = 0
KHA3 240552Z 11017KT 20/14 A2978 RMK A01 T01980141  RH  070%=      5-min Rain = 0
KHA3 240553Z 11015KT 20/14 A2978 RMK A01 T01980142  RH  070%=      5-min Rain = 0
KHA3 240554Z 12014KT 20/14 A2979 RMK A01 T01970143  RH  071%=      5-min Rain = 0
KHA3 240555Z 12016G21KT 20/14 A2979 RMK A01 T01950143  RH  072%=      5-min Rain = 0
KHA3 240556Z 13015KT 20/15 A2979 RMK A01 T01950145  RH  073%=      5-min Rain = 0
KHA3 240557Z 12017KT 19/15 A2979 RMK A01 T01940145  RH  073%=      5-min Rain = 0
KHA3 240558Z 11017KT 19/15 A2978 RMK A01 T01940145  RH  073%=      5-min Rain = 0
KHA3 240559Z 11016KT 19/14 A2978 RMK A01 T01930144  RH  073%=      5-min Rain = 0
KHA3 240600Z 11016G24KT 19/14 A2978 RMK A01 T01930143  RH  073%=      5-min Rain = 0
KHA3 240601Z 11017G22KT 19/14 A2978 RMK A01 T01940143  RH  072%=      5-min Rain = 0
KHA3 240602Z 12014KT 20/14 A2979 RMK A01 T01950144  RH  072%=      5-min Rain = 0
KHA3 240603Z 11013KT 19/15 A2979 RMK A01 T01940145  RH  073%=      5-min Rain = 0
KHA3 240604Z 12015KT 19/15 A2979 RMK A01 T01940145  RH  073%=      5-min Rain = 0
KHA3 240605Z 11015KT 19/14 A2978 RMK A01 T01940144  RH  073%=      5-min Rain = 0
KHA3 240606Z 11016KT 19/14 A2978 RMK A01 T01940143  RH  073%=      5-min Rain = 0
KHA3 240607Z 11015KT 19/14 A2978 RMK A01 T01940143  RH  072%=      5-min Rain = 0
KHA3 240608Z 11015KT 19/14 A2978 RMK A01 T01940144  RH  073%=      5-min Rain = 0
KHA3 240609Z 11015KT 19/14 A2978 RMK A01 T01930144  RH  073%=      5-min Rain = 0
KHA3 240610Z 11014KT 19/14 A2978 RMK A01 T01930144  RH  073%=      5-min Rain = 0
KHA3 240611Z 11015G20KT 19/14 A2978 RMK A01 T01920144  RH  074%=      5-min Rain = 0
KHA3 240612Z 10015KT 19/14 A2978 RMK A01 T01930143  RH  073%=      5-min Rain = 0
KHA3 240613Z 11016KT 19/14 A2978 RMK A01 T01940142  RH  072%=      5-min Rain = 0
KHA3 240614Z 11016KT 19/14 A2978 RMK A01 T01940141  RH  071%=      5-min Rain = 0
KHA3 240615Z 11015KT 20/14 A2978 RMK A01 T01960142  RH  071%=      5-min Rain = 0
KHA3 240616Z 11016KT 20/14 A2978 RMK A01 T01950142  RH  071%=      5-min Rain = 0
KHA3 240617Z 11014KT 20/14 A2978 RMK A01 T01950143  RH  072%=      5-min Rain = 0
KHA3 240618Z 11015KT 20/14 A2978 RMK A01 T01950143  RH  072%=      5-min Rain = 0
KHA3 240619Z 11014KT 19/14 A2978 RMK A01 T01940144  RH  073%=      5-min Rain = 0
KHA3 240620Z 11015KT 19/14 A2978 RMK A01 T01930144  RH  073%=      5-min Rain = 0
KHA3 240621Z 11015KT 19/14 A2978 RMK A01 T01920144  RH  073%=      5-min Rain = 0
KHA3 240622Z 11014KT 19/14 A2978 RMK A01 T01920144  RH  074%=      5-min Rain = 0
KHA3 240623Z 10013KT 19/14 A2978 RMK A01 T01920144  RH  074%=      5-min Rain = 0
KHA3 240624Z 11014KT 19/14 A2978 RMK A01 T01910144  RH  074%=      5-min Rain = 0
KHA3 240625Z 10014KT 19/15 A2978 RMK A01 T01910145  RH  075%=      5-min Rain = 0
KHA3 240626Z 10014KT 19/14 A2978 RMK A01 T01900144  RH  075%=      5-min Rain = 0
KHA3 240627Z 10013KT 19/15 A2978 RMK A01 T01900145  RH  075%=      5-min Rain = 0
KHA3 240628Z 10012KT 19/15 A2978 RMK A01 T01900145  RH  075%=      5-min Rain = 0
KHA3 240629Z 10013KT 19/14 A2978 RMK A01 T01890144  RH  075%=      5-min Rain = 0
KHA3 240630Z 10013KT 19/14 A2978 RMK A01 T01890144  RH  075%=      5-min Rain = 0
KHA3 240631Z 10013KT 19/14 A2978 RMK A01 T01900144  RH  075%=      5-min Rain = 0
KHA3 240632Z 10012KT 19/15 A2978 RMK A01 T01900145  RH  075%=      5-min Rain = 0
KHA3 240633Z 10013KT 19/14 A2978 RMK A01 T01900144  RH  075%=      5-min Rain = 0
KHA3 240634Z 10012KT 19/14 A2978 RMK A01 T01900144  RH  075%=      5-min Rain = 0
KHA3 240635Z 11013KT 19/15 A2978 RMK A01 T01900145  RH  075%=      5-min Rain = 0
KHA3 240636Z 11012KT 19/14 A2977 RMK A01 T01900144  RH  075%=      5-min Rain = 0
KHA3 240637Z 10012KT 19/15 A2977 RMK A01 T01900145  RH  075%=      5-min Rain = 0
KHA3 240638Z 11012KT 19/15 A2977 RMK A01 T01890145  RH  075%=      5-min Rain = 0
KHA3 240639Z 11013KT 19/14 A2977 RMK A01 T01890144  RH  075%=      5-min Rain = 0
KHA3 240640Z 10012KT 19/14 A2977 RMK A01 T01900144  RH  075%=      5-min Rain = 0
KHA3 240641Z 10014KT 19/14 A2977 RMK A01 T01900144  RH  075%=      5-min Rain = 0
KHA3 240642Z 10012KT 19/14 A2977 RMK A01 T01910143  RH  074%=      5-min Rain = 0
KHA3 240643Z 10013KT 19/14 A2977 RMK A01 T01920143  RH  073%=      5-min Rain = 0
KHA3 240644Z 10011KT 19/14 A2978 RMK A01 T01930143  RH  073%=      5-min Rain = 0
KHA3 240645Z 10011KT 19/14 A2978 RMK A01 T01930144  RH  073%=      5-min Rain = 0
KHA3 240646Z 10010KT 19/14 A2978 RMK A01 T01920144  RH  074%=      5-min Rain = 0
KHA3 240647Z 09011KT 19/14 A2978 RMK A01 T01910144  RH  074%=      5-min Rain = 0
KHA3 240648Z 10012KT 19/14 A2978 RMK A01 T01910144  RH  074%=      5-min Rain = 0
KHA3 240649Z 10011KT 19/14 A2978 RMK A01 T01910144  RH  074%=      5-min Rain = 0
KHA3 240650Z 11011KT 19/14 A2978 RMK A01 T01910144  RH  074%=      5-min Rain = 0
KHA3 240651Z 11012KT 19/14 A2978 RMK A01 T01910143  RH  074%=      5-min Rain = 0
KHA3 240652Z 11011KT 19/14 A2978 RMK A01 T01910143  RH  073%=      5-min Rain = 0
KHA3 240653Z 11012KT 19/14 A2978 RMK A01 T01920143  RH  073%=      5-min Rain = 0
KHA3 240654Z 11012KT 19/14 A2978 RMK A01 T01920143  RH  073%=      5-min Rain = 0
KHA3 240655Z 11012KT 19/14 A2978 RMK A01 T01920143  RH  073%=      5-min Rain = 0
KHA3 240656Z 11011KT 19/14 A2978 RMK A01 T01920143  RH  073%=      5-min Rain = 0
KHA3 240657Z 11011KT 19/14 A2978 RMK A01 T01920142  RH  073%=      5-min Rain = 0
KHA3 240658Z 11012KT 19/14 A2978 RMK A01 T01930142  RH  072%=      5-min Rain = 0
KHA3 240659Z 11010KT 19/14 A2978 RMK A01 T01930143  RH  073%=      5-min Rain = 0
KHA3 240700Z 11010KT 19/14 A2978 RMK A01 T01930143  RH  073%=      5-min Rain = 0
KHA3 240701Z 11010KT 19/14 A2978 RMK A01 T01930143  RH  073%=      5-min Rain = 0
KHA3 240702Z 12010KT 19/14 A2978 RMK A01 T01930144  RH  073%=      5-min Rain = 0
KHA3 240703Z 12010KT 19/14 A2978 RMK A01 T01920144  RH  073%=      5-min Rain = 0
KHA3 240704Z 12011KT 19/14 A2978 RMK A01 T01920143  RH  073%=      5-min Rain = 0
KHA3 240705Z 12010KT 19/14 A2978 RMK A01 T01930142  RH  073%=      5-min Rain = 0
KHA3 240706Z 11010KT 19/14 A2978 RMK A01 T01930143  RH  073%=      5-min Rain = 0
KHA3 240707Z 11009KT 19/14 A2978 RMK A01 T01930143  RH  073%=      5-min Rain = 0
KHA3 240708Z 11010KT 19/14 A2978 RMK A01 T01930143  RH  073%=      5-min Rain = 0
KHA3 240709Z 11010KT 19/14 A2978 RMK A01 T01930143  RH  073%=      5-min Rain = 0
KHA3 240710Z 11010KT 19/14 A2978 RMK A01 T01930141  RH  072%=      5-min Rain = 0
KHA3 240711Z 12010KT 19/14 A2978 RMK A01 T01940142  RH  072%=      5-min Rain = 0
KHA3 240712Z 12009KT 19/14 A2978 RMK A01 T01940142  RH  072%=      5-min Rain = 0
KHA3 240713Z 12009KT 19/14 A2978 RMK A01 T01940141  RH  071%=      5-min Rain = 0
KHA3 240714Z 13007KT 20/14 A2978 RMK A01 T01950141  RH  071%=      5-min Rain = 0
KHA3 240715Z 13006KT 20/14 A2978 RMK A01 T01950143  RH  072%=      5-min Rain = 0
KHA3 240716Z 12006KT 19/14 A2978 RMK A01 T01940142  RH  072%=      5-min Rain = 0
KHA3 240717Z 12006KT 19/14 A2978 RMK A01 T01940142  RH  072%=      5-min Rain = 0
KHA3 240718Z 12006KT 19/14 A2978 RMK A01 T01940142  RH  072%=      5-min Rain = 0
KHA3 240719Z 11006KT 19/14 A2978 RMK A01 T01940141  RH  072%=      5-min Rain = 0
KHA3 240720Z 11006KT 19/14 A2978 RMK A01 T01940142  RH  072%=      5-min Rain = 0
KHA3 240721Z 10007KT 19/14 A2978 RMK A01 T01940141  RH  072%=      5-min Rain = 0
KHA3 240722Z 11007KT 19/14 A2978 RMK A01 T01940141  RH  071%=      5-min Rain = 0
KHA3 240723Z 11007KT 19/14 A2978 RMK A01 T01940142  RH  072%=      5-min Rain = 0
KHA3 240724Z 11006KT 19/14 A2978 RMK A01 T01940142  RH  072%=      5-min Rain = 0
KHA3 240725Z 11007KT 19/14 A2978 RMK A01 T01940142  RH  072%=      5-min Rain = 0
KHA3 240726Z 11005KT 19/14 A2978 RMK A01 T01940142  RH  072%=      5-min Rain = 0
KHA3 240727Z 11005KT 19/14 A2978 RMK A01 T01930142  RH  072%=      5-min Rain = 0
KHA3 240728Z 12006KT 19/14 A2978 RMK A01 T01920141  RH  072%=      5-min Rain = 0
KHA3 240729Z 12006KT 19/14 A2978 RMK A01 T01930142  RH  072%=      5-min Rain = 0
KHA3 240730Z 13005KT 19/14 A2978 RMK A01 T01920140  RH  072%=      5-min Rain = 0
KHA3 240731Z 14004KT 19/14 A2978 RMK A01 T01940140  RH  071%=      5-min Rain = 0
KHA3 240732Z 17003KT 19/14 A2978 RMK A01 T01940141  RH  071%=      5-min Rain = 0
KHA3 240733Z 18003KT 19/14 A2978 RMK A01 T01940143  RH  072%=      5-min Rain = 0
KHA3 240734Z 23002KT 19/15 A2979 RMK A01 T01940145  RH  073%=      5-min Rain = 0
KHA3 240735Z 25003KT 19/15 A2979 RMK A01 T01920146  RH  075%=      5-min Rain = 0
KHA3 240736Z 24003KT 19/15 A2979 RMK A01 T01910147  RH  076%=      5-min Rain = 0
KHA3 240737Z 23004KT 19/15 A298 RMK A01 T01900147  RH  076%=      5-min Rain = 0
KHA3 240738Z 21006KT 19/15 A298 RMK A01 T01900148  RH  077%=      5-min Rain = 0
KHA3 240739Z 21007KT 19/15 A2981 RMK A01 T01890149  RH  077%=      5-min Rain = 0
KHA3 240740Z 21004KT 19/15 A2981 RMK A01 T01890149  RH  078%=      5-min Rain = 0
KHA3 240741Z 25001KT 19/15 A2981 RMK A01 T01880149  RH  078%=      5-min Rain = 0
KHA3 240742Z 22001KT 19/15 A298 RMK A01 T01870148  RH  078%=      5-min Rain = 0
KHA3 240743Z 12003KT 19/15 A298 RMK A01 T01870145  RH  076%=      5-min Rain = 0
KHA3 240744Z 15004KT 19/14 A298 RMK A01 T01880144  RH  076%=      5-min Rain = 0
KHA3 240745Z 13003KT 19/14 A298 RMK A01 T01880144  RH  076%=      5-min Rain = 0
KHA3 240746Z 17005KT 19/14 A298 RMK A01 T01880144  RH  075%=      5-min Rain = 0
KHA3 240747Z 17004KT 19/14 A2981 RMK A01 T01890144  RH  075%=      5-min Rain = 0
KHA3 240748Z 17003KT 19/15 A298 RMK A01 T01900146  RH  075%=      5-min Rain = 0
KHA3 240749Z 18004KT 19/14 A298 RMK A01 T01900144  RH  075%=      5-min Rain = 0
KHA3 240750Z 16007KT 19/15 A2981 RMK A01 T01900145  RH  075%=      5-min Rain = 0
KHA3 240751Z 16007KT 19/14 A298 RMK A01 T01890144  RH  075%=      5-min Rain = 0
KHA3 240752Z 16006KT 19/14 A298 RMK A01 T01890144  RH  075%=      5-min Rain = 0
KHA3 240753Z 15006KT 19/14 A298 RMK A01 T01890144  RH  075%=      5-min Rain = 0
KHA3 240754Z 15008KT 19/14 A298 RMK A01 T01890144  RH  075%=      5-min Rain = 0
KHA3 240755Z 15008KT 19/15 A298 RMK A01 T01890145  RH  076%=      5-min Rain = 0
KHA3 240756Z 16009KT 19/14 A298 RMK A01 T01880144  RH  076%=      5-min Rain = 0
KHA3 240757Z 16010KT 19/14 A298 RMK A01 T01870144  RH  076%=      5-min Rain = 0
KHA3 240758Z 16010KT 19/14 A298 RMK A01 T01870144  RH  076%=      5-min Rain = 0
KHA3 240759Z 16010KT 19/14 A298 RMK A01 T01870143  RH  075%=      5-min Rain = 0
KHA3 240800Z 16009KT 19/14 A298 RMK A01 T01880143  RH  075%=      5-min Rain = 0
KHA3 240801Z 17010KT 19/14 A2981 RMK A01 T01880143  RH  075%=      5-min Rain = 0
KHA3 240802Z 18008KT 19/14 A2981 RMK A01 T01880143  RH  075%=      5-min Rain = 0
KHA3 240803Z 19007KT 19/15 A2981 RMK A01 T01880145  RH  076%=      5-min Rain = 0
KHA3 240804Z 20006KT 19/14 A2981 RMK A01 T01870144  RH  076%=      5-min Rain = 0
KHA3 240805Z 19008KT 19/14 A2981 RMK A01 T01870144  RH  076%=      5-min Rain = 0
KHA3 240806Z 20007KT 19/14 A2982 RMK A01 T01870144  RH  076%=      5-min Rain = 0
KHA3 240807Z 21007KT 19/15 A2982 RMK A01 T01870145  RH  076%=      5-min Rain = 0
KHA3 240808Z 21006KT 19/14 A2982 RMK A01 T01870144  RH  076%=      5-min Rain = 0
KHA3 240809Z 24004KT 19/15 A2982 RMK A01 T01860145  RH  077%=      5-min Rain = 0
KHA3 240810Z 25005KT 19/15 A2982 RMK A01 T01860147  RH  078%=      5-min Rain = 0
KHA3 240811Z 25005KT 19/15 A2982 RMK A01 T01850146  RH  078%=      5-min Rain = 0
KHA3 240812Z 26004KT 19/15 A2982 RMK A01 T01860146  RH  078%=      5-min Rain = 0
KHA3 240813Z 26003KT 19/15 A2982 RMK A01 T01850146  RH  078%=      5-min Rain = 0
KHA3 240814Z 25002KT 19/15 A2982 RMK A01 T01850147  RH  078%=      5-min Rain = 0
KHA3 240815Z 29001KT 18/15 A2982 RMK A01 T01840147  RH  079%=      5-min Rain = 0
KHA3 240816Z 30001KT 18/15 A2982 RMK A01 T01840147  RH  079%=      5-min Rain = 0
KHA3 240817Z 30001KT 18/15 A2982 RMK A01 T01830147  RH  079%=      5-min Rain = 0
KHA3 240818Z 28002KT 18/15 A2982 RMK A01 T01820145  RH  079%=      5-min Rain = 0
KHA3 240819Z 31001KT 18/15 A2982 RMK A01 T01830147  RH  080%=      5-min Rain = 0
KHA3 240820Z 27001KT 18/15 A2982 RMK A01 T01820147  RH  080%=      5-min Rain = 0
KHA3 240821Z 19002KT 18/15 A2982 RMK A01 T01810147  RH  081%=      5-min Rain = 0
KHA3 240822Z 15001KT 18/15 A2982 RMK A01 T01810145  RH  080%=      5-min Rain = 0
KHA3 240823Z 27001KT 18/15 A2982 RMK A01 T01810146  RH  080%=      5-min Rain = 0
KHA3 240824Z 27002KT 18/15 A2982 RMK A01 T01810147  RH  081%=      5-min Rain = 0
KHA3 240825Z 26004KT 18/15 A2982 RMK A01 T01810148  RH  081%=      5-min Rain = 0
KHA3 240826Z 25005KT 18/15 A2982 RMK A01 T01800148  RH  081%=      5-min Rain = 0
KHA3 240827Z 25004KT 18/15 A2982 RMK A01 T01800147  RH  081%=      5-min Rain = 0
KHA3 240828Z 27004KT 18/15 A2982 RMK A01 T01810149  RH  082%=      5-min Rain = 0
KHA3 240829Z 25004KT 18/15 A2982 RMK A01 T01800148  RH  081%=      5-min Rain = 0
KHA3 240830Z 27004KT 18/15 A2982 RMK A01 T01810148  RH  081%=      5-min Rain = 0
KHA3 240831Z 25004KT 18/15 A2982 RMK A01 T01810149  RH  082%=      5-min Rain = 0
KHA3 240832Z 24003KT 18/15 A2982 RMK A01 T01810152  RH  083%=      5-min Rain = 0
KHA3 240833Z 26002KT 18/15 A2982 RMK A01 T01800151  RH  083%=      5-min Rain = 0
KHA3 240834Z 17002KT 18/15 A2982 RMK A01 T01790150  RH  083%=      5-min Rain = 0
KHA3 240835Z 16003KT 18/15 A2982 RMK A01 T01790147  RH  082%=      5-min Rain = 0
KHA3 240836Z 21002KT 18/15 A2982 RMK A01 T01790146  RH  081%=      5-min Rain = 0
KHA3 240837Z 23003KT 18/15 A2982 RMK A01 T01790147  RH  082%=      5-min Rain = 0
KHA3 240838Z 24005KT 18/15 A2982 RMK A01 T01800149  RH  082%=      5-min Rain = 0
KHA3 240839Z 23005KT 18/15 A2982 RMK A01 T01800149  RH  082%=      5-min Rain = 0
KHA3 240840Z 23004KT 18/15 A2982 RMK A01 T01800149  RH  082%=      5-min Rain = 0
KHA3 240841Z 23003KT 18/15 A2982 RMK A01 T01800148  RH  081%=      5-min Rain = 0
KHA3 240842Z 22004KT 18/15 A2982 RMK A01 T01800148  RH  081%=      5-min Rain = 0
KHA3 240843Z 21006KT 18/15 A2982 RMK A01 T01800149  RH  082%=      5-min Rain = 0
KHA3 240844Z 22004KT 18/15 A2982 RMK A01 T01800148  RH  081%=      5-min Rain = 0
KHA3 240845Z 22004KT 18/15 A2982 RMK A01 T01800148  RH  081%=      5-min Rain = 0
KHA3 240846Z 21004KT 18/15 A2982 RMK A01 T01800148  RH  081%=      5-min Rain = 0
KHA3 240847Z 22004KT 18/15 A2981 RMK A01 T01800148  RH  082%=      5-min Rain = 0
KHA3 240848Z 22003KT 18/15 A2981 RMK A01 T01790148  RH  082%=      5-min Rain = 0
KHA3 240849Z 22004KT 18/15 A2981 RMK A01 T01790150  RH  083%=      5-min Rain = 0
KHA3 240850Z 22004KT 18/15 A2981 RMK A01 T01780149  RH  083%=      5-min Rain = 0
KHA3 240851Z 22005KT 18/15 A2981 RMK A01 T01780149  RH  083%=      5-min Rain = 0
KHA3 240852Z 22004KT 18/15 A2981 RMK A01 T01770149  RH  084%=      5-min Rain = 0
KHA3 240853Z 22004KT 18/15 A2981 RMK A01 T01760151  RH  085%=      5-min Rain = 0
KHA3 240854Z 21005KT 18/15 A2981 RMK A01 T01760151  RH  086%=      5-min Rain = 0
KHA3 240855Z 21005KT 18/15 A2981 RMK A01 T01750151  RH  086%=      5-min Rain = 0
KHA3 240856Z 21005KT 17/15 A2981 RMK A01 T01740150  RH  086%=      5-min Rain = 0
KHA3 240857Z 22006KT 17/15 A2981 RMK A01 T01740151  RH  086%=      5-min Rain = 0
KHA3 240858Z 22006KT 17/15 A2981 RMK A01 T01740151  RH  087%=      5-min Rain = 0
KHA3 240859Z 22004KT 17/15 A2981 RMK A01 T01740150  RH  086%=      5-min Rain = 0
KHA3 240900Z 22005KT 17/15 A2981 RMK A01 T01740149  RH  085%=      5-min Rain = 0
KHA3 240901Z 22004KT 18/15 A2981 RMK A01 T01750149  RH  085%=      5-min Rain = 0
KHA3 240902Z 22003KT 18/15 A2981 RMK A01 T01760149  RH  084%=      5-min Rain = 0
KHA3 240903Z 22003KT 18/15 A2981 RMK A01 T01750149  RH  084%=      5-min Rain = 0
KHA3 240904Z 22002KT 18/15 A2981 RMK A01 T01760149  RH  084%=      5-min Rain = 0
KHA3 240905Z 23002KT 18/15 A2981 RMK A01 T01760148  RH  084%=      5-min Rain = 0
KHA3 240906Z 22004KT 18/15 A2981 RMK A01 T01760149  RH  084%=      5-min Rain = 0
KHA3 240907Z 22003KT 18/15 A2982 RMK A01 T01760150  RH  085%=      5-min Rain = 0
KHA3 240908Z 23003KT 18/15 A2981 RMK A01 T01760151  RH  085%=      5-min Rain = 0
KHA3 240909Z 23004KT 18/15 A2981 RMK A01 T01750151  RH  086%=      5-min Rain = 0
KHA3 240910Z 23005KT 17/15 A2982 RMK A01 T01740152  RH  087%=      5-min Rain = 0
KHA3 240911Z 23005KT 17/15 A2982 RMK A01 T01740152  RH  087%=      5-min Rain = 0
KHA3 240912Z 23004KT 17/15 A2982 RMK A01 T01740153  RH  087%=      5-min Rain = 0
KHA3 240913Z 24004KT 17/15 A2982 RMK A01 T01740152  RH  087%=      5-min Rain = 0
KHA3 240914Z 24005KT 17/15 A2982 RMK A01 T01740151  RH  086%=      5-min Rain = 0
KHA3 240915Z 24005KT 17/15 A2982 RMK A01 T01740151  RH  086%=      5-min Rain = 0
KHA3 240916Z 24005KT 18/15 A2982 RMK A01 T01750150  RH  085%=      5-min Rain = 0
KHA3 240917Z 23004KT 18/15 A2982 RMK A01 T01750150  RH  085%=      5-min Rain = 0
KHA3 240918Z 24004KT 18/15 A2982 RMK A01 T01750151  RH  086%=      5-min Rain = 0
KHA3 240919Z 24003KT 18/15 A2982 RMK A01 T01750152  RH  086%=      5-min Rain = 0
KHA3 240920Z 23004KT 18/15 A2982 RMK A01 T01750152  RH  086%=      5-min Rain = 0
KHA3 240921Z 23005KT 18/15 A2982 RMK A01 T01750150  RH  085%=      5-min Rain = 0
KHA3 240922Z 23004KT 18/15 A2982 RMK A01 T01750150  RH  085%=      5-min Rain = 0
KHA3 240923Z 22005KT 18/15 A2982 RMK A01 T01750149  RH  085%=      5-min Rain = 0
KHA3 240924Z 23005KT 18/15 A2982 RMK A01 T01760150  RH  085%=      5-min Rain = 0
KHA3 240925Z 22004KT 18/15 A2982 RMK A01 T01760149  RH  084%=      5-min Rain = 0
KHA3 240926Z 22003KT 18/15 A2982 RMK A01 T01760149  RH  084%=      5-min Rain = 0
KHA3 240927Z 22004KT 18/15 A2982 RMK A01 T01750149  RH  085%=      5-min Rain = 0
KHA3 240928Z 23004KT 18/15 A2982 RMK A01 T01750149  RH  084%=      5-min Rain = 0
KHA3 240929Z 23004KT 18/15 A2982 RMK A01 T01760149  RH  085%=      5-min Rain = 0
KHA3 240930Z 21003KT 18/15 A2982 RMK A01 T01750150  RH  085%=      5-min Rain = 0
KHA3 240931Z 22004KT 18/15 A2982 RMK A01 T01750150  RH  085%=      5-min Rain = 0
KHA3 240932Z 23004KT 18/15 A2982 RMK A01 T01750150  RH  085%=      5-min Rain = 0
KHA3 240933Z 23003KT 18/15 A2982 RMK A01 T01750150  RH  085%=      5-min Rain = 0
KHA3 240934Z 22003KT 18/15 A2982 RMK A01 T01750151  RH  086%=      5-min Rain = 0
KHA3 240935Z 22002KT 18/15 A2982 RMK A01 T01750151  RH  086%=      5-min Rain = 0
KHA3 240936Z 21003KT 17/15 A2981 RMK A01 T01740151  RH  086%=      5-min Rain = 0
KHA3 240937Z 20003KT 18/15 A2981 RMK A01 T01750151  RH  086%=      5-min Rain = 0
KHA3 240938Z 19004KT 17/15 A2982 RMK A01 T01740151  RH  086%=      5-min Rain = 0
KHA3 240939Z 22005KT 18/15 A2981 RMK A01 T01750150  RH  086%=      5-min Rain = 0
KHA3 240940Z 20006KT 18/15 A2981 RMK A01 T01750150  RH  085%=      5-min Rain = 0
KHA3 240941Z 20005KT 18/15 A2981 RMK A01 T01750151  RH  086%=      5-min Rain = 0
KHA3 240942Z 19006KT 18/15 A2981 RMK A01 T01750149  RH  085%=      5-min Rain = 0
KHA3 240943Z 19005KT 18/15 A2981 RMK A01 T01760151  RH  085%=      5-min Rain = 0
KHA3 240944Z 19006KT 18/15 A2981 RMK A01 T01760152  RH  086%=      5-min Rain = 0
KHA3 240945Z 19007KT 18/15 A2981 RMK A01 T01760151  RH  085%=      5-min Rain = 0
KHA3 240946Z 19006KT 18/15 A2981 RMK A01 T01760149  RH  085%=      5-min Rain = 0
KHA3 240947Z 19007KT 18/15 A2981 RMK A01 T01750149  RH  085%=      5-min Rain = 0
KHA3 240948Z 19007KT 18/15 A2981 RMK A01 T01750149  RH  085%=      5-min Rain = 0
KHA3 240949Z 19007KT 18/15 A2981 RMK A01 T01760151  RH  085%=      5-min Rain = 0
KHA3 240950Z 19008KT 18/15 A2981 RMK A01 T01760151  RH  085%=      5-min Rain = 0
KHA3 240951Z 20009KT 18/15 A2981 RMK A01 T01750150  RH  085%=      5-min Rain = 0
KHA3 240952Z 20009KT 18/15 A2981 RMK A01 T01750151  RH  086%=      5-min Rain = 0
KHA3 240953Z 20008KT 18/15 A2981 RMK A01 T01750151  RH  086%=      5-min Rain = 0
KHA3 240954Z 20010KT 18/15 A2981 RMK A01 T01750151  RH  086%=      5-min Rain = 0
KHA3 240955Z 20008KT 18/15 A2981 RMK A01 T01750151  RH  086%=      5-min Rain = 0
KHA3 240956Z 19008KT 18/15 A2981 RMK A01 T01750151  RH  086%=      5-min Rain = 0
KHA3 240957Z 19008KT 18/15 A2981 RMK A01 T01750152  RH  086%=      5-min Rain = 0
KHA3 240958Z 19008KT 18/15 A2981 RMK A01 T01750151  RH  086%=      5-min Rain = 0
KHA3 240959Z 20009KT 18/15 A2981 RMK A01 T01750151  RH  086%=      5-min Rain = 0
KHA3 241000Z 21009KT 18/15 A2981 RMK A01 T01750152  RH  086%=      5-min Rain = 0
KHA3 241001Z 20008KT 18/15 A2981 RMK A01 T01750152  RH  087%=      5-min Rain = 0
KHA3 241002Z 20007KT 17/15 A2981 RMK A01 T01740152  RH  087%=      5-min Rain = 0
KHA3 241003Z 20007KT 17/15 A2981 RMK A01 T01740152  RH  087%=      5-min Rain = 0
KHA3 241004Z 20007KT 17/15 A2981 RMK A01 T01740152  RH  087%=      5-min Rain = 0
KHA3 241005Z 19006KT 17/15 A2981 RMK A01 T01740152  RH  087%=      5-min Rain = 0
KHA3 241006Z 19007KT 17/15 A2981 RMK A01 T01730152  RH  087%=      5-min Rain = 0
KHA3 241007Z 20007KT 17/15 A2981 RMK A01 T01730152  RH  087%=      5-min Rain = 0
KHA3 241008Z 20007KT 17/15 A2981 RMK A01 T01730151  RH  087%=      5-min Rain = 0
KHA3 241009Z 19007KT 17/15 A2981 RMK A01 T01730151  RH  087%=      5-min Rain = 0
KHA3 241010Z 19008KT 17/15 A2981 RMK A01 T01730152  RH  087%=      5-min Rain = 0
KHA3 241011Z 20007KT 17/15 A2981 RMK A01 T01730152  RH  087%=      5-min Rain = 0
KHA3 241012Z 20008KT 17/15 A2981 RMK A01 T01730152  RH  087%=      5-min Rain = 0
KHA3 241013Z 20009KT 17/15 A2981 RMK A01 T01730152  RH  088%=      5-min Rain = 0
KHA3 241014Z 21009KT 17/15 A2981 RMK A01 T01730153  RH  088%=      5-min Rain = 0
KHA3 241015Z 21009KT 17/15 A2981 RMK A01 T01730153  RH  088%=      5-min Rain = 0
KHA3 241016Z 20009KT 17/15 A2981 RMK A01 T01730152  RH  088%=      5-min Rain = 0
KHA3 241017Z 20008KT 17/15 A2981 RMK A01 T01730153  RH  088%=      5-min Rain = 0
KHA3 241018Z 21007KT 17/15 A2981 RMK A01 T01730153  RH  088%=      5-min Rain = 0
KHA3 241019Z 20009KT 17/15 A2981 RMK A01 T01720153  RH  088%=      5-min Rain = 0
KHA3 241020Z 21008KT 17/15 A2981 RMK A01 T01720152  RH  088%=      5-min Rain = 0
KHA3 241021Z 21009KT 17/15 A2981 RMK A01 T01720153  RH  088%=      5-min Rain = 0
KHA3 241022Z 21009KT 17/15 A2981 RMK A01 T01720152  RH  088%=      5-min Rain = 0
KHA3 241023Z 21009KT 17/15 A2981 RMK A01 T01720152  RH  088%=      5-min Rain = 0
KHA3 241024Z 20008KT 17/15 A2981 RMK A01 T01720152  RH  088%=      5-min Rain = 0
KHA3 241025Z 20008KT 17/15 A2981 RMK A01 T01720152  RH  088%=      5-min Rain = 0
KHA3 241026Z 20008KT 17/15 A2981 RMK A01 T01730152  RH  088%=      5-min Rain = 0
KHA3 241027Z 20007KT 17/15 A2981 RMK A01 T01720152  RH  088%=      5-min Rain = 0
KHA3 241028Z 20007KT 17/15 A2981 RMK A01 T01720152  RH  088%=      5-min Rain = 0
KHA3 241029Z 20006KT 17/15 A2981 RMK A01 T01720152  RH  088%=      5-min Rain = 0
KHA3 241030Z 20006KT 17/15 A2981 RMK A01 T01720152  RH  088%=      5-min Rain = 0
KHA3 241031Z 20006KT 17/15 A2981 RMK A01 T01720152  RH  088%=      5-min Rain = 0
KHA3 241032Z 20006KT 17/15 A2981 RMK A01 T01720152  RH  088%=      5-min Rain = 0
KHA3 241033Z 20007KT 17/15 A2981 RMK A01 T01720152  RH  088%=      5-min Rain = 0
KHA3 241034Z 19007KT 17/15 A2981 RMK A01 T01720152  RH  088%=      5-min Rain = 0
KHA3 241035Z 20008KT 17/15 A2981 RMK A01 T01720152  RH  088%=      5-min Rain = 0
KHA3 241036Z 20009KT 17/15 A2981 RMK A01 T01720152  RH  088%=      5-min Rain = 0
KHA3 241037Z 20010KT 17/15 A2981 RMK A01 T01730151  RH  087%=      5-min Rain = 0
KHA3 241038Z 20009KT 17/15 A2981 RMK A01 T01730151  RH  087%=      5-min Rain = 0
KHA3 241039Z 20010KT 17/15 A2981 RMK A01 T01730152  RH  087%=      5-min Rain = 0
KHA3 241040Z 20010KT 17/15 A2981 RMK A01 T01730152  RH  087%=      5-min Rain = 0
KHA3 241041Z 21011KT 17/15 A2981 RMK A01 T01730152  RH  087%=      5-min Rain = 0
KHA3 241042Z 21011KT 17/15 A2981 RMK A01 T01730152  RH  087%=      5-min Rain = 0
KHA3 241043Z 21011KT 17/15 A2981 RMK A01 T01730151  RH  087%=      5-min Rain = 0
KHA3 241044Z 21012KT 17/15 A2981 RMK A01 T01730151  RH  087%=      5-min Rain = 0
KHA3 241045Z 21011KT 17/15 A2981 RMK A01 T01730152  RH  087%=      5-min Rain = 0
KHA3 241046Z 21011KT 17/15 A2981 RMK A01 T01730152  RH  087%=      5-min Rain = 0
KHA3 241047Z 21010KT 17/15 A2981 RMK A01 T01730152  RH  087%=      5-min Rain = 0
KHA3 241048Z 21010KT 17/15 A2981 RMK A01 T01730152  RH  087%=      5-min Rain = 0
KHA3 241049Z 21010KT 17/15 A2981 RMK A01 T01730152  RH  087%=      5-min Rain = 0
KHA3 241050Z 21010KT 17/15 A2981 RMK A01 T01720151  RH  087%=      5-min Rain = 0
KHA3 241051Z 21009KT 17/15 A2981 RMK A01 T01720152  RH  088%=      5-min Rain = 0
KHA3 241052Z 21011KT 17/15 A2981 RMK A01 T01720152  RH  088%=      5-min Rain = 0
KHA3 241053Z 21010KT 17/15 A2981 RMK A01 T01720152  RH  088%=      5-min Rain = 0
KHA3 241054Z 21011KT 17/15 A2981 RMK A01 T01720152  RH  088%=      5-min Rain = 0
KHA3 241055Z 21011KT 17/15 A2981 RMK A01 T01720151  RH  088%=      5-min Rain = 0
KHA3 241056Z 20011KT 17/15 A2981 RMK A01 T01720151  RH  088%=      5-min Rain = 0
KHA3 241057Z 21011KT 17/15 A2981 RMK A01 T01720151  RH  088%=      5-min Rain = 0
KHA3 241058Z 20011KT 17/15 A2981 RMK A01 T01720152  RH  088%=      5-min Rain = 0
KHA3 241059Z 20011KT 17/15 A2981 RMK A01 T01720152  RH  088%=      5-min Rain = 0
KHA3 241100Z 20011KT 17/15 A2981 RMK A01 T01720151  RH  088%=      5-min Rain = 0
KHA3 241101Z 20011KT 17/15 A2981 RMK A01 T01720151  RH  088%=      5-min Rain = 0
KHA3 241102Z 20011KT 17/15 A2981 RMK A01 T01720152  RH  088%=      5-min Rain = 0
KHA3 241103Z 20012KT 17/15 A2981 RMK A01 T01720151  RH  087%=      5-min Rain = 0
KHA3 241104Z 20011KT 17/15 A2981 RMK A01 T01720150  RH  087%=      5-min Rain = 0
KHA3 241105Z 20012KT 17/15 A2981 RMK A01 T01720151  RH  087%=      5-min Rain = 0
KHA3 241106Z 19011KT 17/15 A2981 RMK A01 T01720151  RH  087%=      5-min Rain = 0
KHA3 241107Z 20012KT 17/15 A2981 RMK A01 T01720151  RH  087%=      5-min Rain = 0
KHA3 241108Z 19011KT 17/15 A2981 RMK A01 T01720151  RH  087%=      5-min Rain = 0
KHA3 241109Z 19010KT 17/15 A2981 RMK A01 T01720151  RH  087%=      5-min Rain = 0
KHA3 241110Z 19012KT 17/15 A2981 RMK A01 T01720151  RH  087%=      5-min Rain = 0
KHA3 241111Z 19010KT 17/15 A2981 RMK A01 T01720151  RH  087%=      5-min Rain = 0
KHA3 241112Z 19011KT 17/15 A2981 RMK A01 T01720151  RH  088%=      5-min Rain = 0
KHA3 241113Z 19011KT 17/15 A2981 RMK A01 T01720151  RH  088%=      5-min Rain = 0
KHA3 241114Z 19011KT 17/15 A2981 RMK A01 T01720151  RH  088%=      5-min Rain = 0
KHA3 241115Z 19011KT 17/15 A2981 RMK A01 T01710151  RH  088%=      5-min Rain = 0
KHA3 241116Z 19011KT 17/15 A2981 RMK A01 T01710151  RH  088%=      5-min Rain = 0
KHA3 241117Z 19011KT 17/15 A2981 RMK A01 T01710151  RH  088%=      5-min Rain = 0
KHA3 241118Z 19010KT 17/15 A2981 RMK A01 T01720151  RH  088%=      5-min Rain = 0
KHA3 241119Z 19010KT 17/15 A2981 RMK A01 T01720151  RH  088%=      5-min Rain = 0
KHA3 241120Z 19011KT 17/15 A2981 RMK A01 T01710151  RH  088%=      5-min Rain = 0
KHA3 241121Z 19010KT 17/15 A2981 RMK A01 T01720151  RH  088%=      5-min Rain = 0
KHA3 241122Z 19011KT 17/15 A2981 RMK A01 T01710151  RH  088%=      5-min Rain = 0
KHA3 241123Z 19011KT 17/15 A2981 RMK A01 T01710151  RH  088%=      5-min Rain = 0
KHA3 241124Z 19010KT 17/15 A2981 RMK A01 T01710151  RH  088%=      5-min Rain = 0
KHA3 241125Z 19010KT 17/15 A2981 RMK A01 T01710151  RH  088%=      5-min Rain = 0
KHA3 241126Z 19011KT 17/15 A2981 RMK A01 T01710152  RH  088%=      5-min Rain = 0
KHA3 241127Z 19011KT 17/15 A2981 RMK A01 T01710151  RH  088%=      5-min Rain = 0
KHA3 241128Z 19010KT 17/15 A2981 RMK A01 T01710151  RH  088%=      5-min Rain = 0
KHA3 241129Z 19010KT 17/15 A2981 RMK A01 T01710151  RH  088%=      5-min Rain = 0
KHA3 241130Z 18010KT 17/15 A2981 RMK A01 T01710152  RH  089%=      5-min Rain = 0
KHA3 241131Z 18009KT 17/15 A2981 RMK A01 T01710152  RH  088%=      5-min Rain = 0
KHA3 241132Z 18009KT 17/15 A2981 RMK A01 T01710152  RH  088%=      5-min Rain = 0
KHA3 241133Z 18009KT 17/15 A2981 RMK A01 T01710152  RH  088%=      5-min Rain = 0
KHA3 241134Z 18008KT 17/15 A2982 RMK A01 T01710151  RH  088%=      5-min Rain = 0
KHA3 241135Z 17007KT 17/15 A2982 RMK A01 T01710151  RH  088%=      5-min Rain = 0
KHA3 241136Z 17007KT 17/15 A2982 RMK A01 T01710152  RH  089%=      5-min Rain = 0
KHA3 241137Z 17008KT 17/15 A2982 RMK A01 T01700151  RH  089%=      5-min Rain = 0
KHA3 241138Z 17006KT 17/15 A2982 RMK A01 T01700151  RH  089%=      5-min Rain = 0
KHA3 241139Z 16005KT 17/15 A2982 RMK A01 T01700151  RH  089%=      5-min Rain = 0
KHA3 241140Z 16005KT 17/15 A2982 RMK A01 T01690151  RH  089%=      5-min Rain = 0
KHA3 241141Z 15005KT 17/15 A2982 RMK A01 T01690151  RH  089%=      5-min Rain = 0
KHA3 241142Z 15005KT 17/15 A2982 RMK A01 T01690151  RH  089%=      5-min Rain = 0
KHA3 241143Z 15005KT 17/15 A2982 RMK A01 T01690151  RH  089%=      5-min Rain = 0
KHA3 241144Z 14005KT 17/15 A2982 RMK A01 T01690151  RH  089%=      5-min Rain = 0
KHA3 241145Z 12004KT 17/15 A2982 RMK A01 T01680151  RH  090%=      5-min Rain = 0
KHA3 241146Z 13004KT 17/15 A2982 RMK A01 T01680151  RH  090%=      5-min Rain = 0
KHA3 241147Z 13004KT 17/15 A2982 RMK A01 T01680151  RH  090%=      5-min Rain = 0
KHA3 241148Z 13004KT 17/15 A2982 RMK A01 T01680151  RH  090%=      5-min Rain = 0
KHA3 241149Z 13004KT 17/15 A2982 RMK A01 T01680151  RH  090%=      5-min Rain = 0
KHA3 241150Z 13005KT 17/15 A2982 RMK A01 T01680151  RH  090%=      5-min Rain = 0
KHA3 241151Z 13004KT 17/15 A2982 RMK A01 T01680151  RH  090%=      5-min Rain = 0
KHA3 241152Z 13004KT 17/15 A2982 RMK A01 T01680151  RH  090%=      5-min Rain = 0
KHA3 241153Z 12004KT 17/15 A2982 RMK A01 T01680151  RH  090%=      5-min Rain = 0
KHA3 241154Z 13005KT 17/15 A2982 RMK A01 T01690151  RH  090%=      5-min Rain = 0
KHA3 241155Z 14005KT 17/15 A2982 RMK A01 T01690151  RH  089%=      5-min Rain = 0
KHA3 241156Z 14005KT 17/15 A2982 RMK A01 T01690151  RH  089%=      5-min Rain = 0
KHA3 241157Z 15006KT 17/15 A2982 RMK A01 T01690152  RH  089%=      5-min Rain = 0
KHA3 241158Z 15006KT 17/15 A2982 RMK A01 T01690152  RH  089%=      5-min Rain = 0
KHA3 241159Z 15006KT 17/15 A2983 RMK A01 T01690152  RH  090%=      5-min Rain = 0
KHA3 241200Z 15006KT 17/15 A2983 RMK A01 T01690152  RH  090%=      5-min Rain = 0
KHA3 241201Z 15007KT 17/15 A2983 RMK A01 T01690152  RH  090%=      5-min Rain = 0
KHA3 241202Z 15006KT 17/15 A2983 RMK A01 T01690152  RH  090%=      5-min Rain = 0
KHA3 241203Z 15006KT 17/15 A2983 RMK A01 T01690152  RH  090%=      5-min Rain = 0
KHA3 241204Z 14005KT 17/15 A2983 RMK A01 T01690153  RH  090%=      5-min Rain = 0
KHA3 241205Z 14005KT 17/15 A2983 RMK A01 T01690153  RH  090%=      5-min Rain = 0
KHA3 241206Z 14006KT 17/15 A2983 RMK A01 T01690153  RH  090%=      5-min Rain = 0
KHA3 241207Z 13005KT 17/15 A2983 RMK A01 T01690153  RH  090%=      5-min Rain = 0
KHA3 241208Z 14004KT 17/15 A2983 RMK A01 T01690152  RH  090%=      5-min Rain = 0
KHA3 241209Z 13004KT 17/15 A2983 RMK A01 T01690152  RH  090%=      5-min Rain = 0
KHA3 241210Z 13004KT 17/15 A2983 RMK A01 T01690152  RH  090%=      5-min Rain = 0
KHA3 241211Z 13004KT 17/15 A2983 RMK A01 T01690152  RH  090%=      5-min Rain = 0
KHA3 241212Z 12004KT 17/15 A2983 RMK A01 T01690152  RH  090%=      5-min Rain = 0
KHA3 241213Z 13003KT 17/15 A2983 RMK A01 T01690153  RH  090%=      5-min Rain = 0
KHA3 241214Z 13003KT 17/15 A2983 RMK A01 T01690153  RH  090%=      5-min Rain = 0
KHA3 241215Z 13003KT 17/15 A2983 RMK A01 T01690153  RH  090%=      5-min Rain = 0
KHA3 241216Z 13004KT 17/15 A2983 RMK A01 T01690153  RH  091%=      5-min Rain = 0
KHA3 241217Z 13003KT 17/15 A2983 RMK A01 T01690153  RH  091%=      5-min Rain = 0
KHA3 241218Z 14004KT 17/15 A2983 RMK A01 T01680153  RH  091%=      5-min Rain = 0
KHA3 241219Z 14003KT 17/15 A2983 RMK A01 T01680153  RH  091%=      5-min Rain = 0
KHA3 241220Z 13002KT 17/15 A2983 RMK A01 T01680154  RH  091%=      5-min Rain = 0
KHA3 241221Z 13003KT 17/15 A2983 RMK A01 T01680153  RH  091%=      5-min Rain = 0
KHA3 241222Z 14002KT 17/15 A2983 RMK A01 T01670154  RH  092%=      5-min Rain = 0
KHA3 241223Z 14002KT 17/15 A2984 RMK A01 T01670153  RH  092%=      5-min Rain = 0
KHA3 241224Z 15002KT 17/15 A2984 RMK A01 T01670153  RH  092%=      5-min Rain = 0
KHA3 241225Z 15002KT 17/15 A2984 RMK A01 T01670154  RH  092%=      5-min Rain = 0
KHA3 241226Z 13001KT 17/15 A2984 RMK A01 T01670154  RH  092%=      5-min Rain = 0
KHA3 241227Z 16001KT 17/15 A2984 RMK A01 T01670154  RH  092%=      5-min Rain = 0
KHA3 241228Z 16001KT 17/15 A2984 RMK A01 T01670154  RH  092%=      5-min Rain = 0
KHA3 241229Z 15001KT 17/15 A2984 RMK A01 T01670154  RH  092%=      5-min Rain = 0
KHA3 241230Z 14001KT 17/15 A2984 RMK A01 T01670154  RH  092%=      5-min Rain = 0
KHA3 241231Z 14001KT 17/15 A2984 RMK A01 T01680154  RH  092%=      5-min Rain = 0
KHA3 241232Z 14001KT 17/15 A2984 RMK A01 T01680154  RH  091%=      5-min Rain = 0
KHA3 241233Z 14001KT 17/16 A2984 RMK A01 T01680155  RH  092%=      5-min Rain = 0
KHA3 241234Z 16001KT 17/16 A2984 RMK A01 T01690155  RH  091%=      5-min Rain = 0
KHA3 241235Z 17001KT 17/16 A2984 RMK A01 T01690155  RH  091%=      5-min Rain = 0
KHA3 241236Z 17000KT 17/16 A2984 RMK A01 T01700155  RH  091%=      5-min Rain = 0
KHA3 241237Z 18000KT 17/16 A2984 RMK A01 T01700156  RH  091%=      5-min Rain = 0
KHA3 241238Z 22001KT 17/16 A2984 RMK A01 T01710156  RH  091%=      5-min Rain = 0
KHA3 241239Z 21001KT 17/16 A2984 RMK A01 T01720156  RH  091%=      5-min Rain = 0
KHA3 241240Z 00000KT 17/16 A2984 RMK A01 T01720157  RH  091%=      5-min Rain = 0
KHA3 241241Z 19000KT 17/16 A2984 RMK A01 T01730158  RH  091%=      5-min Rain = 0
KHA3 241242Z 20001KT 17/16 A2984 RMK A01 T01730156  RH  090%=      5-min Rain = 0
KHA3 241243Z 20001KT 17/16 A2984 RMK A01 T01740157  RH  090%=      5-min Rain = 0
KHA3 241244Z 19002KT 17/16 A2984 RMK A01 T01740156  RH  089%=      5-min Rain = 0
KHA3 241245Z 18002KT 17/16 A2984 RMK A01 T01740156  RH  089%=      5-min Rain = 0
KHA3 241246Z 17003KT 17/16 A2984 RMK A01 T01740156  RH  090%=      5-min Rain = 0
KHA3 241247Z 17003KT 17/16 A2984 RMK A01 T01740157  RH  090%=      5-min Rain = 0
KHA3 241248Z 17003KT 17/16 A2984 RMK A01 T01740156  RH  089%=      5-min Rain = 0
KHA3 241249Z 16004KT 17/16 A2984 RMK A01 T01740155  RH  089%=      5-min Rain = 0
KHA3 241250Z 16004KT 17/16 A2984 RMK A01 T01740155  RH  089%=      5-min Rain = 0
KHA3 241251Z 16004KT 17/16 A2984 RMK A01 T01740155  RH  089%=      5-min Rain = 0
KHA3 241252Z 16005KT 18/16 A2984 RMK A01 T01750155  RH  088%=      5-min Rain = 0
KHA3 241253Z 16004KT 18/16 A2984 RMK A01 T01750156  RH  089%=      5-min Rain = 0
KHA3 241254Z 16004KT 18/16 A2984 RMK A01 T01750156  RH  088%=      5-min Rain = 0
KHA3 241255Z 15003KT 18/16 A2984 RMK A01 T01760156  RH  088%=      5-min Rain = 0
KHA3 241256Z 16003KT 18/16 A2984 RMK A01 T01760156  RH  088%=      5-min Rain = 0
KHA3 241257Z 17003KT 18/16 A2984 RMK A01 T01760156  RH  088%=      5-min Rain = 0
KHA3 241258Z 16004KT 18/16 A2984 RMK A01 T01760156  RH  088%=      5-min Rain = 0
KHA3 241259Z 17004KT 18/16 A2984 RMK A01 T01750157  RH  089%=      5-min Rain = 0
KHA3 241300Z 17004KT 18/16 A2984 RMK A01 T01750156  RH  089%=      5-min Rain = 0
KHA3 241301Z 17003KT 18/16 A2984 RMK A01 T01760157  RH  089%=      5-min Rain = 0
KHA3 241302Z 17003KT 18/16 A2984 RMK A01 T01760158  RH  090%=      5-min Rain = 0
KHA3 241303Z 18004KT 18/16 A2984 RMK A01 T01750158  RH  089%=      5-min Rain = 0
KHA3 241304Z 18004KT 18/16 A2984 RMK A01 T01760158  RH  089%=      5-min Rain = 0
KHA3 241305Z 18005KT 18/16 A2984 RMK A01 T01760159  RH  089%=      5-min Rain = 0
KHA3 241306Z 18005KT 18/16 A2984 RMK A01 T01770159  RH  089%=      5-min Rain = 0
KHA3 241307Z 19006KT 18/16 A2984 RMK A01 T01780157  RH  087%=      5-min Rain = 0
KHA3 241308Z 19006KT 18/16 A2984 RMK A01 T01790157  RH  087%=      5-min Rain = 0
KHA3 241309Z 19005KT 18/16 A2984 RMK A01 T01790157  RH  087%=      5-min Rain = 0
KHA3 241310Z 19005KT 18/16 A2984 RMK A01 T01790158  RH  087%=      5-min Rain = 0
KHA3 241311Z 19005KT 18/16 A2984 RMK A01 T01800158  RH  087%=      5-min Rain = 0
KHA3 241312Z 19005KT 18/16 A2984 RMK A01 T01800158  RH  087%=      5-min Rain = 0
KHA3 241313Z 19006KT 18/16 A2984 RMK A01 T01810159  RH  087%=      5-min Rain = 0
KHA3 241314Z 19007KT 18/16 A2984 RMK A01 T01820159  RH  086%=      5-min Rain = 0
KHA3 241315Z 19006KT 18/16 A2984 RMK A01 T01830158  RH  085%=      5-min Rain = 0
KHA3 241316Z 18007KT 18/16 A2984 RMK A01 T01840159  RH  085%=      5-min Rain = 0
KHA3 241317Z 18007KT 18/16 A2984 RMK A01 T01840158  RH  085%=      5-min Rain = 0
KHA3 241318Z 19007KT 19/16 A2984 RMK A01 T01860160  RH  085%=      5-min Rain = 0
KHA3 241319Z 18007KT 19/16 A2984 RMK A01 T01860159  RH  084%=      5-min Rain = 0
KHA3 241320Z 19008KT 19/16 A2984 RMK A01 T01870159  RH  084%=      5-min Rain = 0
KHA3 241321Z 18008KT 19/16 A2984 RMK A01 T01880161  RH  084%=      5-min Rain = 0
KHA3 241322Z 18009KT 19/16 A2984 RMK A01 T01890160  RH  083%=      5-min Rain = 0
KHA3 241323Z 18007KT 19/16 A2984 RMK A01 T01900162  RH  084%=      5-min Rain = 0
KHA3 241324Z 18009KT 19/16 A2984 RMK A01 T01910162  RH  083%=      5-min Rain = 0
KHA3 241325Z 19009KT 19/16 A2984 RMK A01 T01920161  RH  082%=      5-min Rain = 0
KHA3 241326Z 17008KT 19/16 A2984 RMK A01 T01930162  RH  082%=      5-min Rain = 0
KHA3 241327Z 17007KT 19/16 A2984 RMK A01 T01940163  RH  083%=      5-min Rain = 0
KHA3 241328Z 17009KT 20/16 A2984 RMK A01 T01950164  RH  083%=      5-min Rain = 0
KHA3 241329Z 17010KT 20/16 A2984 RMK A01 T01960163  RH  081%=      5-min Rain = 0
KHA3 241330Z 18010KT 20/16 A2984 RMK A01 T01960161  RH  080%=      5-min Rain = 0
KHA3 241331Z 18011KT 20/16 A2984 RMK A01 T01960162  RH  081%=      5-min Rain = 0
KHA3 241332Z 18011KT 20/16 A2984 RMK A01 T01960162  RH  081%=      5-min Rain = 0
KHA3 241333Z 17011KT 20/16 A2984 RMK A01 T01960163  RH  082%=      5-min Rain = 0
KHA3 241334Z 18011KT 20/16 A2984 RMK A01 T01960163  RH  081%=      5-min Rain = 0
KHA3 241335Z 17011KT 20/16 A2984 RMK A01 T01970164  RH  081%=      5-min Rain = 0
KHA3 241336Z 17008KT 20/16 A2984 RMK A01 T01970164  RH  081%=      5-min Rain = 0
KHA3 241337Z 17010KT 20/17 A2984 RMK A01 T01990167  RH  082%=      5-min Rain = 0
KHA3 241338Z 17007KT 20/17 A2984 RMK A01 T02000165  RH  081%=      5-min Rain = 0
KHA3 241339Z 18012KT 20/17 A2984 RMK A01 T02000167  RH  081%=      5-min Rain = 0
KHA3 241340Z 17011KT 20/17 A2984 RMK A01 T02010167  RH  081%=      5-min Rain = 0
KHA3 241341Z 16011KT 20/17 A2984 RMK A01 T02010167  RH  081%=      5-min Rain = 0
KHA3 241342Z 17011KT 20/17 A2984 RMK A01 T02010167  RH  081%=      5-min Rain = 0
KHA3 241343Z 17011KT 20/17 A2984 RMK A01 T02020168  RH  081%=      5-min Rain = 0
KHA3 241344Z 17012KT 20/17 A2984 RMK A01 T02010168  RH  081%=      5-min Rain = 0
KHA3 241345Z 17012KT 20/17 A2984 RMK A01 T02010167  RH  081%=      5-min Rain = 0
KHA3 241346Z 17011KT 20/17 A2984 RMK A01 T02010169  RH  082%=      5-min Rain = 0
KHA3 241347Z 17013KT 20/17 A2984 RMK A01 T02020170  RH  081%=      5-min Rain = 0
KHA3 241348Z 16011KT 20/17 A2984 RMK A01 T02030170  RH  081%=      5-min Rain = 0
KHA3 241349Z 16013KT 20/17 A2984 RMK A01 T02040171  RH  081%=      5-min Rain = 0
KHA3 241350Z 17012KT 21/17 A2984 RMK A01 T02050171  RH  081%=      5-min Rain = 0
KHA3 241351Z 17012KT 21/17 A2984 RMK A01 T02050170  RH  081%=      5-min Rain = 0
KHA3 241352Z 16015KT 21/17 A2984 RMK A01 T02050170  RH  080%=      5-min Rain = 0
KHA3 241353Z 17013KT 21/17 A2984 RMK A01 T02050172  RH  081%=      5-min Rain = 0
KHA3 241354Z 16014KT 21/17 A2984 RMK A01 T02060171  RH  081%=      5-min Rain = 0
KHA3 241355Z 17014KT 21/17 A2984 RMK A01 T02060171  RH  080%=      5-min Rain = 0
KHA3 241356Z 17015KT 21/17 A2984 RMK A01 T02060171  RH  080%=      5-min Rain = 0
KHA3 241357Z 17015KT 21/17 A2983 RMK A01 T02060172  RH  081%=      5-min Rain = 0
KHA3 241358Z 17012KT 21/17 A2984 RMK A01 T02060172  RH  081%=      5-min Rain = 0
KHA3 241359Z 17014KT 21/17 A2984 RMK A01 T02070173  RH  081%=      5-min Rain = 0
KHA3 241400Z 17012KT 21/17 A2984 RMK A01 T02080174  RH  081%=      5-min Rain = 0
KHA3 241401Z 17013KT 21/18 A2984 RMK A01 T02090175  RH  081%=      5-min Rain = 0
KHA3 241402Z 16016KT 21/18 A2984 RMK A01 T02100175  RH  080%=      5-min Rain = 0
KHA3 241403Z 17015KT 21/17 A2984 RMK A01 T02100174  RH  080%=      5-min Rain = 0
KHA3 241404Z 17012KT 21/18 A2984 RMK A01 T02110176  RH  080%=      5-min Rain = 0
KHA3 241405Z 16015KT 21/18 A2984 RMK A01 T02120177  RH  081%=      5-min Rain = 0
KHA3 241406Z 17014KT 21/18 A2984 RMK A01 T02130175  RH  079%=      5-min Rain = 0
KHA3 241407Z 17013KT 21/18 A2984 RMK A01 T02130177  RH  080%=      5-min Rain = 0
KHA3 241408Z 16015KT 21/18 A2984 RMK A01 T02140178  RH  080%=      5-min Rain = 0
KHA3 241409Z 16018KT 22/18 A2984 RMK A01 T02150177  RH  079%=      5-min Rain = 0
KHA3 241410Z 16012KT 22/18 A2984 RMK A01 T02160179  RH  080%=      5-min Rain = 0
KHA3 241411Z 17013KT 22/18 A2984 RMK A01 T02170179  RH  079%=      5-min Rain = 0
KHA3 241412Z 17013KT 22/18 A2984 RMK A01 T02180180  RH  079%=      5-min Rain = 0
KHA3 241413Z 16011KT 22/18 A2983 RMK A01 T02190181  RH  079%=      5-min Rain = 0
KHA3 241414Z 17016KT 22/18 A2983 RMK A01 T02210182  RH  079%=      5-min Rain = 0
KHA3 241415Z 17016KT 22/18 A2983 RMK A01 T02230180  RH  077%=      5-min Rain = 0
KHA3 241416Z 17018KT 22/18 A2983 RMK A01 T02220181  RH  077%=      5-min Rain = 0
KHA3 241417Z 17016KT 22/18 A2983 RMK A01 T02220180  RH  077%=      5-min Rain = 0
KHA3 241418Z 18016KT 22/18 A2983 RMK A01 T02220180  RH  077%=      5-min Rain = 0
KHA3 241419Z 17017KT 22/18 A2983 RMK A01 T02210180  RH  077%=      5-min Rain = 0
KHA3 241420Z 17015G20KT 22/18 A2983 RMK A01 T02220181  RH  078%=      5-min Rain = 0
KHA3 241421Z 18018KT 22/18 A2983 RMK A01 T02230181  RH  077%=      5-min Rain = 0
KHA3 241422Z 16013KT 22/18 A2983 RMK A01 T02230183  RH  078%=      5-min Rain = 0
KHA3 241423Z 16015KT 23/18 A2983 RMK A01 T02260183  RH  077%=      5-min Rain = 0
KHA3 241424Z 16019KT 23/18 A2983 RMK A01 T02260181  RH  076%=      5-min Rain = 0
KHA3 241425Z 17019KT 23/18 A2982 RMK A01 T02260181  RH  076%=      5-min Rain = 0
KHA3 241426Z 17017KT 23/18 A2982 RMK A01 T02260182  RH  076%=      5-min Rain = 0
KHA3 241427Z 17018KT 23/18 A2982 RMK A01 T02270181  RH  075%=      5-min Rain = 0
KHA3 241428Z 17017KT 23/18 A2982 RMK A01 T02270182  RH  076%=      5-min Rain = 0
KHA3 241429Z 17016G21KT 23/18 A2982 RMK A01 T02270182  RH  076%=      5-min Rain = 0
KHA3 241430Z 16017G24KT 23/18 A2982 RMK A01 T02290184  RH  076%=      5-min Rain = 0
KHA3 241431Z 17021KT 23/18 A2982 RMK A01 T02300181  RH  074%=      5-min Rain = 0
KHA3 241432Z 17019KT 23/18 A2982 RMK A01 T02290181  RH  074%=      5-min Rain = 0
KHA3 241433Z 17020KT 23/18 A2982 RMK A01 T02290181  RH  074%=      5-min Rain = 0
KHA3 241434Z 17019KT 23/18 A2982 RMK A01 T02290181  RH  074%=      5-min Rain = 0
KHA3 241435Z 17018KT 23/18 A2982 RMK A01 T02300182  RH  075%=      5-min Rain = 0
KHA3 241436Z 16018KT 23/18 A2982 RMK A01 T02300183  RH  075%=      5-min Rain = 0
KHA3 241437Z 16016G21KT 23/18 A2982 RMK A01 T02310184  RH  074%=      5-min Rain = 0
KHA3 241438Z 16017G23KT 23/19 A2982 RMK A01 T02340185  RH  074%=      5-min Rain = 0
KHA3 241439Z 17018KT 24/18 A2982 RMK A01 T02350183  RH  073%=      5-min Rain = 0
KHA3 241440Z 17018KT 24/18 A2982 RMK A01 T02350182  RH  072%=      5-min Rain = 0
KHA3 241441Z 18016KT 24/18 A2982 RMK A01 T02350183  RH  073%=      5-min Rain = 0
KHA3 241442Z 17017KT 24/18 A2982 RMK A01 T02350184  RH  073%=      5-min Rain = 0
KHA3 241443Z 17012KT 24/19 A2982 RMK A01 T02360186  RH  074%=      5-min Rain = 0
KHA3 241444Z 17016KT 24/19 A2982 RMK A01 T02390186  RH  072%=      5-min Rain = 0
KHA3 241445Z 17017KT 24/18 A2982 RMK A01 T02400183  RH  070%=      5-min Rain = 0
KHA3 241446Z 17018KT 24/18 A2982 RMK A01 T02400181  RH  070%=      5-min Rain = 0
KHA3 241447Z 18016KT 24/18 A2982 RMK A01 T02400183  RH  071%=      5-min Rain = 0
KHA3 241448Z 17015KT 24/18 A2982 RMK A01 T02400181  RH  069%=      5-min Rain = 0
KHA3 241449Z 17016KT 24/18 A2982 RMK A01 T02400179  RH  069%=      5-min Rain = 0
KHA3 241450Z 18012KT 24/18 A2982 RMK A01 T02410181  RH  069%=      5-min Rain = 0
KHA3 241451Z 17011KT 24/18 A2982 RMK A01 T02430183  RH  069%=      5-min Rain = 0
KHA3 241452Z 18012G18KT 25/18 A2983 RMK A01 T02450183  RH  068%=      5-min Rain = 0
KHA3 241453Z 19014KT 25/18 A2982 RMK A01 T02460180  RH  067%=      5-min Rain = 0
KHA3 241454Z 19015KT 25/18 A2983 RMK A01 T02460178  RH  066%=      5-min Rain = 0
KHA3 241455Z 18011KT 25/18 A2983 RMK A01 T02450180  RH  067%=      5-min Rain = 0
KHA3 241456Z 18011KT 25/18 A2983 RMK A01 T02460182  RH  068%=      5-min Rain = 0
KHA3 241457Z 19014KT 25/18 A2983 RMK A01 T02470180  RH  066%=      5-min Rain = 0
KHA3 241458Z 18012KT 25/18 A2982 RMK A01 T02460175  RH  065%=      5-min Rain = 0
KHA3 241459Z 17008KT 24/18 A2983 RMK A01 T02440182  RH  068%=      5-min Rain = 0
KHA3 241500Z 17012KT 25/18 A2983 RMK A01 T02460181  RH  067%=      5-min Rain = 0
KHA3 241501Z 18012KT 25/18 A2983 RMK A01 T02470180  RH  066%=      5-min Rain = 0
KHA3 241502Z 18010KT 25/18 A2983 RMK A01 T02470180  RH  066%=      5-min Rain = 0
KHA3 241503Z 20013KT 25/18 A2983 RMK A01 T02480177  RH  065%=      5-min Rain = 0
KHA3 241504Z 19011KT 25/17 A2982 RMK A01 T02480172  RH  063%=      5-min Rain = 0
KHA3 241505Z 20012G20KT 25/18 A2983 RMK A01 T02480177  RH  065%=      5-min Rain = 0
KHA3 241506Z 19013KT 25/18 A2982 RMK A01 T02510177  RH  064%=      5-min Rain = 0
KHA3 241507Z 17011KT 25/18 A2983 RMK A01 T02540181  RH  064%=      5-min Rain = 0
KHA3 241508Z 18012KT 25/18 A2983 RMK A01 T02540178  RH  063%=      5-min Rain = 0
KHA3 241509Z 19015G20KT 26/17 A2983 RMK A01 T02550174  RH  061%=      5-min Rain = 0
KHA3 241510Z 18016KT 25/17 A2983 RMK A01 T02530171  RH  060%=      5-min Rain = 0
KHA3 241511Z 17015KT 25/17 A2983 RMK A01 T02520173  RH  062%=      5-min Rain = 0
KHA3 241512Z 19012KT 25/17 A2983 RMK A01 T02520174  RH  062%=      5-min Rain = 0
KHA3 241513Z 19012G18KT 25/18 A2983 RMK A01 T02510176  RH  063%=      5-min Rain = 0
KHA3 241514Z 19016KT 25/17 A2983 RMK A01 T02530172  RH  061%=      5-min Rain = 0
KHA3 241515Z 19017KT 25/17 A2983 RMK A01 T02530169  RH  060%=      5-min Rain = 0
KHA3 241516Z 19014KT 25/17 A2983 RMK A01 T02520169  RH  060%=      5-min Rain = 0
KHA3 241517Z 19014KT 25/18 A2983 RMK A01 T02520175  RH  062%=      5-min Rain = 0
KHA3 241518Z 19014KT 25/17 A2983 RMK A01 T02540169  RH  059%=      5-min Rain = 0
KHA3 241519Z 20015KT 25/17 A2983 RMK A01 T02530172  RH  061%=      5-min Rain = 0
KHA3 241520Z 20015KT 25/18 A2983 RMK A01 T02540175  RH  062%=      5-min Rain = 0
KHA3 241521Z 19017KT 26/17 A2983 RMK A01 T02550173  RH  061%=      5-min Rain = 0
KHA3 241522Z 19015KT 26/17 A2983 RMK A01 T02550170  RH  059%=      5-min Rain = 0
KHA3 241523Z 19013KT 25/17 A2983 RMK A01 T02540174  RH  061%=      5-min Rain = 0
KHA3 241524Z 20016G21KT 26/17 A2983 RMK A01 T02550172  RH  060%=      5-min Rain = 0
KHA3 241525Z 19016KT 26/17 A2982 RMK A01 T02560170  RH  059%=      5-min Rain = 0
KHA3 241526Z 19013KT 26/17 A2983 RMK A01 T02560171  RH  059%=      5-min Rain = 0
KHA3 241527Z 19016G21KT 26/17 A2983 RMK A01 T02560174  RH  060%=      5-min Rain = 0
KHA3 241528Z 19018KT 26/17 A2983 RMK A01 T02560169  RH  058%=      5-min Rain = 0
KHA3 241529Z 18016KT 26/17 A2983 RMK A01 T02550172  RH  060%=      5-min Rain = 0
KHA3 241530Z 19016KT 26/17 A2983 RMK A01 T02560170  RH  059%=      5-min Rain = 0
KHA3 241531Z 19016KT 26/17 A2983 RMK A01 T02550171  RH  060%=      5-min Rain = 0
KHA3 241532Z 19016KT 26/17 A2983 RMK A01 T02550171  RH  059%=      5-min Rain = 0
KHA3 241533Z 19018KT 26/17 A2983 RMK A01 T02560170  RH  059%=      5-min Rain = 0
KHA3 241534Z 19016KT 25/17 A2983 RMK A01 T02540171  RH  060%=      5-min Rain = 0
KHA3 241535Z 20018KT 26/17 A2983 RMK A01 T02550171  RH  060%=      5-min Rain = 0
KHA3 241536Z 20016KT 26/17 A2983 RMK A01 T02560170  RH  059%=      5-min Rain = 0
KHA3 241537Z 19015KT 26/18 A2983 RMK A01 T02560175  RH  061%=      5-min Rain = 0
KHA3 241538Z 18015G20KT 26/17 A2983 RMK A01 T02580173  RH  060%=      5-min Rain = 0
KHA3 241539Z 18011KT 26/18 A2983 RMK A01 T02590176  RH  060%=      5-min Rain = 0
KHA3 241540Z 18014KT 26/18 A2983 RMK A01 T02610175  RH  059%=      5-min Rain = 0
KHA3 241541Z 19018KT 26/17 A2983 RMK A01 T02620173  RH  058%=      5-min Rain = 0
KHA3 241542Z 20015KT 26/17 A2983 RMK A01 T02610171  RH  058%=      5-min Rain = 0
KHA3 241543Z 20016KT 26/17 A2983 RMK A01 T02600174  RH  059%=      5-min Rain = 0
KHA3 241544Z 20018KT 26/17 A2983 RMK A01 T02620173  RH  058%=      5-min Rain = 0
KHA3 241545Z 18016KT 26/17 A2983 RMK A01 T02630174  RH  058%=      5-min Rain = 0
KHA3 241546Z 18015KT 26/17 A2983 RMK A01 T02620173  RH  058%=      5-min Rain = 0
KHA3 241547Z 18016KT 26/18 A2983 RMK A01 T02620175  RH  058%=      5-min Rain = 0
KHA3 241548Z 18015KT 26/17 A2983 RMK A01 T02620172  RH  058%=      5-min Rain = 0
KHA3 241549Z 20015KT 26/17 A2983 RMK A01 T02620174  RH  058%=      5-min Rain = 0
KHA3 241550Z 19018KT 26/17 A2982 RMK A01 T02640172  RH  057%=      5-min Rain = 0
KHA3 241551Z 20019KT 26/17 A2983 RMK A01 T02640171  RH  056%=      5-min Rain = 0
KHA3 241552Z 20017KT 26/17 A2983 RMK A01 T02630170  RH  057%=      5-min Rain = 0
KHA3 241553Z 20014KT 26/17 A2983 RMK A01 T02630174  RH  058%=      5-min Rain = 0
KHA3 241554Z 19013KT 26/17 A2983 RMK A01 T02640172  RH  057%=      5-min Rain = 0
KHA3 241555Z 19014KT 27/18 A2983 RMK A01 T02650176  RH  058%=      5-min Rain = 0
KHA3 241556Z 20015KT 27/17 A2983 RMK A01 T02670174  RH  057%=      5-min Rain = 0
KHA3 241557Z 20017KT 27/17 A2982 RMK A01 T02660170  RH  056%=      5-min Rain = 0
KHA3 241558Z 21014KT 27/17 A2982 RMK A01 T02650171  RH  056%=      5-min Rain = 0
KHA3 241559Z 20016KT 26/17 A2982 RMK A01 T02640172  RH  057%=      5-min Rain = 0
KHA3 241600Z 20015KT 26/17 A2982 RMK A01 T02640172  RH  057%=      5-min Rain = 0
KHA3 241601Z 20015KT 27/17 A2982 RMK A01 T02650167  RH  055%=      5-min Rain = 0
KHA3 241602Z 19013KT 27/17 A2982 RMK A01 T02650171  RH  056%=      5-min Rain = 0
KHA3 241603Z 18014KT 27/17 A2982 RMK A01 T02660173  RH  057%=      5-min Rain = 0
KHA3 241604Z 18015KT 27/17 A2982 RMK A01 T02660169  RH  055%=      5-min Rain = 0
KHA3 241605Z 20015KT 27/17 A2982 RMK A01 T02670170  RH  055%=      5-min Rain = 0
KHA3 241606Z 20015KT 27/17 A2982 RMK A01 T02670170  RH  055%=      5-min Rain = 0
KHA3 241607Z 18017KT 27/17 A2982 RMK A01 T02670168  RH  054%=      5-min Rain = 0
KHA3 241608Z 18018KT 27/17 A2982 RMK A01 T02660167  RH  055%=      5-min Rain = 0
KHA3 241609Z 19016KT 27/17 A2982 RMK A01 T02650166  RH  055%=      5-min Rain = 0
KHA3 241610Z 21015G21KT 27/17 A2982 RMK A01 T02650169  RH  056%=      5-min Rain = 0
KHA3 241611Z 21018KT 27/17 A2982 RMK A01 T02670165  RH  054%=      5-min Rain = 0
KHA3 241612Z 20015KT 27/17 A2982 RMK A01 T02660165  RH  054%=      5-min Rain = 0
KHA3 241613Z 19017G23KT 27/17 A2982 RMK A01 T02660169  RH  056%=      5-min Rain = 0
KHA3 241614Z 19018KT 27/17 A2982 RMK A01 T02660167  RH  054%=      5-min Rain = 0
KHA3 241615Z 18017KT 27/17 A2982 RMK A01 T02670169  RH  055%=      5-min Rain = 0
KHA3 241616Z 18019KT 27/17 A2982 RMK A01 T02680166  RH  053%=      5-min Rain = 0
KHA3 241617Z 18018KT 27/17 A2982 RMK A01 T02670165  RH  054%=      5-min Rain = 0
KHA3 241618Z 17018KT 27/17 A2982 RMK A01 T02670166  RH  054%=      5-min Rain = 0
KHA3 241619Z 18019KT 27/17 A2982 RMK A01 T02670165  RH  053%=      5-min Rain = 0
KHA3 241620Z 17017KT 27/17 A2982 RMK A01 T02670165  RH  054%=      5-min Rain = 0
KHA3 241621Z 18018KT 27/17 A2982 RMK A01 T02670167  RH  054%=      5-min Rain = 0
KHA3 241622Z 20018KT 27/16 A2982 RMK A01 T02680164  RH  053%=      5-min Rain = 0
KHA3 241623Z 18017KT 27/16 A2982 RMK A01 T02680164  RH  053%=      5-min Rain = 0
KHA3 241624Z 20018KT 27/17 A2982 RMK A01 T02690169  RH  054%=      5-min Rain = 0
KHA3 241625Z 21020KT 27/16 A2982 RMK A01 T02710163  RH  052%=      5-min Rain = 0
KHA3 241626Z 20018G24KT 27/16 A2982 RMK A01 T02700164  RH  052%=      5-min Rain = 0
KHA3 241627Z 20018KT 27/16 A2982 RMK A01 T02690162  RH  052%=      5-min Rain = 0
KHA3 241628Z 20019KT 27/16 A2982 RMK A01 T02680163  RH  053%=      5-min Rain = 0
KHA3 241629Z 19018KT 27/16 A2982 RMK A01 T02680162  RH  052%=      5-min Rain = 0
KHA3 241630Z 18016G21KT 27/16 A2983 RMK A01 T02670162  RH  052%=      5-min Rain = 0
KHA3 241631Z 18013KT 27/17 A2983 RMK A01 T02680167  RH  054%=      5-min Rain = 0
KHA3 241632Z 18015KT 27/17 A2983 RMK A01 T02710169  RH  053%=      5-min Rain = 0
KHA3 241633Z 18013KT 27/17 A2983 RMK A01 T02720168  RH  053%=      5-min Rain = 0
KHA3 241634Z 18013KT 27/17 A2983 RMK A01 T02730168  RH  053%=      5-min Rain = 0
KHA3 241635Z 17016KT 27/17 A2983 RMK A01 T02730169  RH  053%=      5-min Rain = 0
KHA3 241636Z 19015KT 27/17 A2983 RMK A01 T02740169  RH  053%=      5-min Rain = 0
KHA3 241637Z 19017KT 27/17 A2982 RMK A01 T02740166  RH  051%=      5-min Rain = 0
KHA3 241638Z 18015KT 27/16 A2983 RMK A01 T02720164  RH  052%=      5-min Rain = 0
KHA3 241639Z 18016KT 27/17 A2983 RMK A01 T02710166  RH  053%=      5-min Rain = 0
KHA3 241640Z 19016G21KT 27/17 A2983 RMK A01 T02710166  RH  053%=      5-min Rain = 0
KHA3 241641Z 19018KT 27/17 A2982 RMK A01 T02720169  RH  053%=      5-min Rain = 0
KHA3 241642Z 19017KT 27/17 A2982 RMK A01 T02730166  RH  052%=      5-min Rain = 0
KHA3 241643Z 17018KT 27/17 A2983 RMK A01 T02720167  RH  053%=      5-min Rain = 0
KHA3 241644Z 17017KT 27/16 A2983 RMK A01 T02720163  RH  051%=      5-min Rain = 0
KHA3 241645Z 17018KT 27/16 A2983 RMK A01 T02710164  RH  052%=      5-min Rain = 0
KHA3 241646Z 17014G20KT 27/17 A2982 RMK A01 T02710165  RH  052%=      5-min Rain = 0
KHA3 241647Z 16016KT 27/17 A2982 RMK A01 T02720169  RH  053%=      5-min Rain = 0
KHA3 241648Z 18017G22KT 28/17 A2982 RMK A01 T02760172  RH  053%=      5-min Rain = 0
KHA3 241649Z 19017KT 28/17 A2982 RMK A01 T02760166  RH  051%=      5-min Rain = 0
KHA3 241650Z 19017KT 27/17 A2982 RMK A01 T02720165  RH  052%=      5-min Rain = 0
KHA3 241651Z 18015KT 27/17 A2982 RMK A01 T02710169  RH  054%=      5-min Rain = 0
KHA3 241652Z 17017KT 27/17 A2982 RMK A01 T02730170  RH  053%=      5-min Rain = 0
KHA3 241653Z 18014KT 28/17 A2982 RMK A01 T02760171  RH  053%=      5-min Rain = 0
KHA3 241654Z 17016KT 28/17 A2982 RMK A01 T02770168  RH  051%=      5-min Rain = 0
KHA3 241655Z 17019KT 28/17 A2982 RMK A01 T02770170  RH  052%=      5-min Rain = 0
KHA3 241656Z 18020KT 28/17 A2982 RMK A01 T02760167  RH  052%=      5-min Rain = 0
KHA3 241657Z 17019KT 28/17 A2983 RMK A01 T02750167  RH  052%=      5-min Rain = 0
KHA3 241658Z 16017KT 27/17 A2983 RMK A01 T02740167  RH  052%=      5-min Rain = 0
KHA3 241659Z 18017G22KT 27/17 A2983 RMK A01 T02730166  RH  052%=      5-min Rain = 0
KHA3 241700Z 19020G26KT 27/17 A2982 RMK A01 T02740168  RH  052%=      5-min Rain = 0
KHA3 241701Z 18015KT 27/17 A2983 RMK A01 T02740170  RH  053%=      5-min Rain = 0
KHA3 241702Z 18018KT 28/17 A2983 RMK A01 T02760170  RH  053%=      5-min Rain = 0
KHA3 241703Z 18018KT 28/17 A2983 RMK A01 T02760170  RH  052%=      5-min Rain = 0
KHA3 241704Z 19014G19KT 27/17 A2982 RMK A01 T02740170  RH  053%=      5-min Rain = 0
KHA3 241705Z 19014KT 28/17 A2982 RMK A01 T02750174  RH  054%=      5-min Rain = 0
KHA3 241706Z 19016KT 28/17 A2982 RMK A01 T02780174  RH  053%=      5-min Rain = 0
KHA3 241707Z 17018KT 28/17 A2982 RMK A01 T02790173  RH  052%=      5-min Rain = 0
KHA3 241708Z 18017KT 28/17 A2982 RMK A01 T02790170  RH  052%=      5-min Rain = 0
KHA3 241709Z 18016KT 28/17 A2982 RMK A01 T02780170  RH  052%=      5-min Rain = 0
KHA3 241710Z 17015KT 28/17 A2982 RMK A01 T02770168  RH  052%=      5-min Rain = 0
KHA3 241711Z 17015KT 28/17 A2982 RMK A01 T02760169  RH  052%=      5-min Rain = 0
KHA3 241712Z 16014KT 28/17 A2982 RMK A01 T02760170  RH  052%=      5-min Rain = 0
KHA3 241713Z 18014KT 28/17 A2982 RMK A01 T02760171  RH  053%=      5-min Rain = 0
KHA3 241714Z 19016KT 28/17 A2982 RMK A01 T02770173  RH  053%=      5-min Rain = 0
KHA3 241715Z 19013KT 28/17 A2982 RMK A01 T02750172  RH  053%=      5-min Rain = 0
KHA3 241716Z 16013G23KT 28/18 A2982 RMK A01 T02750177  RH  055%=      5-min Rain = 0
KHA3 241717Z 17019KT 28/17 A2982 RMK A01 T02790174  RH  053%=      5-min Rain = 0
KHA3 241718Z 16021KT 28/17 A2982 RMK A01 T02800172  RH  052%=      5-min Rain = 0
KHA3 241719Z 15016G21KT 28/17 A2982 RMK A01 T02790172  RH  052%=      5-min Rain = 0
KHA3 241720Z 18016KT 28/17 A2982 RMK A01 T02790174  RH  053%=      5-min Rain = 0
KHA3 241721Z 18014KT 28/17 A2982 RMK A01 T02800173  RH  052%=      5-min Rain = 0
KHA3 241722Z 19012KT 28/18 A2982 RMK A01 T02790176  RH  054%=      5-min Rain = 0
KHA3 241723Z 18015G20KT 28/18 A2982 RMK A01 T02800179  RH  054%=      5-min Rain = 0
KHA3 241724Z 18019KT 28/17 A2982 RMK A01 T02810174  RH  052%=      5-min Rain = 0
KHA3 241725Z 19015KT 28/18 A2982 RMK A01 T02790175  RH  053%=      5-min Rain = 0
KHA3 241726Z 18015KT 28/18 A2982 RMK A01 T02780176  RH  054%=      5-min Rain = 0
KHA3 241727Z 18012KT 28/18 A2982 RMK A01 T02780175  RH  053%=      5-min Rain = 0
KHA3 241728Z 20012KT 28/18 A2981 RMK A01 T02780176  RH  054%=      5-min Rain = 0
KHA3 241729Z 18014G22KT 28/18 A2981 RMK A01 T02790183  RH  056%=      5-min Rain = 0
KHA3 241730Z 17018KT 28/18 A2982 RMK A01 T02830176  RH  052%=      5-min Rain = 0
KHA3 241731Z 18016KT 28/17 A2981 RMK A01 T02830174  RH  052%=      5-min Rain = 0
KHA3 241732Z 17017KT 28/18 A2981 RMK A01 T02830178  RH  053%=      5-min Rain = 0
KHA3 241733Z 19016KT 28/17 A2981 RMK A01 T02840173  RH  051%=      5-min Rain = 0
KHA3 241734Z 17016KT 28/18 A2981 RMK A01 T02830179  RH  053%=      5-min Rain = 0
KHA3 241735Z 17020G25KT 28/17 A2981 RMK A01 T02840174  RH  051%=      5-min Rain = 0
KHA3 241736Z 17021KT 28/17 A2981 RMK A01 T02820174  RH  052%=      5-min Rain = 0
KHA3 241737Z 16019KT 28/17 A2981 RMK A01 T02800173  RH  052%=      5-min Rain = 0
KHA3 241738Z 16021KT 28/17 A2981 RMK A01 T02790174  RH  053%=      5-min Rain = 0
KHA3 241739Z 17017KT 28/17 A2981 RMK A01 T02800174  RH  053%=      5-min Rain = 0
KHA3 241740Z 17016KT 28/18 A2981 RMK A01 T02820176  RH  053%=      5-min Rain = 0
KHA3 241741Z 18016KT 28/18 A2981 RMK A01 T02820179  RH  053%=      5-min Rain = 0
KHA3 241742Z 20019G26KT 28/18 A2981 RMK A01 T02830178  RH  053%=      5-min Rain = 0
KHA3 241743Z 18019G24KT 28/18 A298 RMK A01 T02840177  RH  052%=      5-min Rain = 0
KHA3 241744Z 17015KT 29/18 A2981 RMK A01 T02850178  RH  052%=      5-min Rain = 0
KHA3 241745Z 17020KT 29/18 A2981 RMK A01 T02860177  RH  052%=      5-min Rain = 0
KHA3 241746Z 17016KT 29/18 A298 RMK A01 T02850175  RH  051%=      5-min Rain = 0
KHA3 241747Z 18017KT 29/18 A298 RMK A01 T02850177  RH  052%=      5-min Rain = 0
KHA3 241748Z 17015KT 29/18 A298 RMK A01 T02850177  RH  052%=      5-min Rain = 0
KHA3 241749Z 16016KT 29/18 A298 RMK A01 T02850177  RH  052%=      5-min Rain = 0
KHA3 241750Z 17015KT 29/18 A298 RMK A01 T02860179  RH  052%=      5-min Rain = 0
KHA3 241751Z 17017KT 29/18 A298 RMK A01 T02880179  RH  052%=      5-min Rain = 0
KHA3 241752Z 15020KT 29/18 A298 RMK A01 T02890178  RH  051%=      5-min Rain = 0
KHA3 241753Z 16020KT 29/17 A298 RMK A01 T02900174  RH  050%=      5-min Rain = 0
KHA3 241754Z 16018KT 29/18 A298 RMK A01 T02880176  RH  051%=      5-min Rain = 0
KHA3 241755Z 16017KT 29/18 A298 RMK A01 T02880178  RH  051%=      5-min Rain = 0
KHA3 241756Z 17016KT 29/18 A298 RMK A01 T02900177  RH  051%=      5-min Rain = 0
KHA3 241757Z 18017KT 29/18 A298 RMK A01 T02920182  RH  052%=      5-min Rain = 0
KHA3 241758Z 19017KT 29/18 A298 RMK A01 T02930177  RH  050%=      5-min Rain = 0
KHA3 241759Z 18014KT 29/18 A298 RMK A01 T02900181  RH  052%=      5-min Rain = 0
KHA3 241800Z 17020KT 29/18 A298 RMK A01 T02910177  RH  050%=      5-min Rain = 0
KHA3 241801Z 17021KT 29/17 A298 RMK A01 T02900173  RH  049%=      5-min Rain = 0
KHA3 241802Z 18017KT 29/17 A298 RMK A01 T02880173  RH  050%=      5-min Rain = 0
KHA3 241803Z 16016KT 29/18 A2979 RMK A01 T02870177  RH  051%=      5-min Rain = 0
KHA3 241804Z 16021KT 29/18 A2979 RMK A01 T02910176  RH  050%=      5-min Rain = 0
KHA3 241805Z 17021KT 29/18 A2979 RMK A01 T02910175  RH  050%=      5-min Rain = 0
KHA3 241806Z 17017KT 29/18 A2979 RMK A01 T02900177  RH  050%=      5-min Rain = 0
KHA3 241807Z 16016KT 29/18 A2979 RMK A01 T02910178  RH  050%=      5-min Rain = 0
KHA3 241808Z 17016G23KT 29/18 A2979 RMK A01 T02920178  RH  050%=      5-min Rain = 0
KHA3 241809Z 17019KT 29/18 A2979 RMK A01 T02930177  RH  050%=      5-min Rain = 0
KHA3 241810Z 17020KT 29/17 A2979 RMK A01 T02910174  RH  049%=      5-min Rain = 0
KHA3 241811Z 18015KT 29/18 A2979 RMK A01 T02890176  RH  050%=      5-min Rain = 0
KHA3 241812Z 18015KT 29/18 A2979 RMK A01 T02900175  RH  050%=      5-min Rain = 0
KHA3 241813Z 17013KT 29/18 A2979 RMK A01 T02900176  RH  050%=      5-min Rain = 0
KHA3 241814Z 18014G19KT 29/18 A2979 RMK A01 T02900179  RH  051%=      5-min Rain = 0
KHA3 241815Z 17021G26KT 29/18 A2979 RMK A01 T02920177  RH  050%=      5-min Rain = 0
KHA3 241816Z 18020KT 29/18 A2979 RMK A01 T02920176  RH  050%=      5-min Rain = 0
KHA3 241817Z 18014KT 29/18 A2979 RMK A01 T02910177  RH  050%=      5-min Rain = 0
KHA3 241818Z 18011KT 29/18 A2979 RMK A01 T02900179  RH  051%=      5-min Rain = 0
KHA3 241819Z 17015G24KT 29/18 A2979 RMK A01 T02920179  RH  051%=      5-min Rain = 0
KHA3 241820Z 16020G25KT 29/18 A2979 RMK A01 T02930177  RH  050%=      5-min Rain = 0
KHA3 241821Z 17023KT 29/18 A2979 RMK A01 T02930176  RH  049%=      5-min Rain = 0
KHA3 241822Z 18019KT 29/17 A2979 RMK A01 T02920174  RH  049%=      5-min Rain = 0
KHA3 241823Z 18019KT 29/18 A2979 RMK A01 T02900177  RH  050%=      5-min Rain = 0
KHA3 241824Z 17016G21KT 29/18 A2979 RMK A01 T02900178  RH  051%=      5-min Rain = 0
KHA3 241825Z 16018KT 29/18 A2979 RMK A01 T02920178  RH  050%=      5-min Rain = 0
KHA3 241826Z 18018KT 29/18 A2979 RMK A01 T02940181  RH  051%=      5-min Rain = 0
KHA3 241827Z 18018KT 30/18 A2979 RMK A01 T02950177  RH  049%=      5-min Rain = 0
KHA3 241828Z 18018KT 29/18 A2979 RMK A01 T02930178  RH  050%=      5-min Rain = 0
KHA3 241829Z 18014KT 29/18 A2979 RMK A01 T02920178  RH  050%=      5-min Rain = 0
KHA3 241830Z 17018KT 29/18 A2979 RMK A01 T02930179  RH  050%=      5-min Rain = 0
KHA3 241831Z 18021KT 29/18 A2979 RMK A01 T02940178  RH  050%=      5-min Rain = 0
KHA3 241832Z 19020KT 29/18 A2979 RMK A01 T02930176  RH  050%=      5-min Rain = 0
KHA3 241833Z 18016G22KT 29/18 A2979 RMK A01 T02910175  RH  050%=      5-min Rain = 0
KHA3 241834Z 16016G21KT 29/18 A2979 RMK A01 T02900178  RH  051%=      5-min Rain = 0
KHA3 241835Z 16017KT 29/18 A2979 RMK A01 T02920177  RH  050%=      5-min Rain = 0
KHA3 241836Z 18017KT 29/18 A2979 RMK A01 T02930179  RH  050%=      5-min Rain = 0
KHA3 241837Z 18015KT 29/18 A2979 RMK A01 T02940179  RH  050%=      5-min Rain = 0
KHA3 241838Z 19016KT 29/18 A2979 RMK A01 T02940181  RH  051%=      5-min Rain = 0
KHA3 241839Z 19015KT 30/18 A2979 RMK A01 T02950182  RH  051%=      5-min Rain = 0
KHA3 241840Z 18014G19KT 30/18 A2979 RMK A01 T02960184  RH  051%=      5-min Rain = 0
KHA3 241841Z 17017KT 30/18 A2979 RMK A01 T02980183  RH  050%=      5-min Rain = 0
KHA3 241842Z 17015KT 30/18 A2978 RMK A01 T02990184  RH  050%=      5-min Rain = 0
KHA3 241843Z 17018KT 30/18 A2978 RMK A01 T03010184  RH  050%=      5-min Rain = 0
KHA3 241844Z 16019KT 30/18 A2978 RMK A01 T03000180  RH  049%=      5-min Rain = 0
KHA3 241845Z 17015KT 30/18 A2978 RMK A01 T02980183  RH  050%=      5-min Rain = 0
KHA3 241846Z 19016KT 30/19 A2978 RMK A01 T02990185  RH  050%=      5-min Rain = 0
KHA3 241847Z 18018KT 30/18 A2978 RMK A01 T02980180  RH  049%=      5-min Rain = 0
KHA3 241848Z 18018KT 30/18 A2978 RMK A01 T02950181  RH  051%=      5-min Rain = 0
KHA3 241849Z 16015KT 29/18 A2978 RMK A01 T02940182  RH  051%=      5-min Rain = 0
KHA3 241850Z 17016KT 30/19 A2978 RMK A01 T02960185  RH  051%=      5-min Rain = 0
KHA3 241851Z 16018G23KT 30/18 A2978 RMK A01 T02990184  RH  050%=      5-min Rain = 0
KHA3 241852Z 15019KT 30/19 A2978 RMK A01 T03010186  RH  050%=      5-min Rain = 0
KHA3 241853Z 15015KT 30/18 A2978 RMK A01 T03010183  RH  049%=      5-min Rain = 0
KHA3 241854Z 16014KT 30/18 A2978 RMK A01 T02980182  RH  050%=      5-min Rain = 0
KHA3 241855Z 15016KT 30/18 A2978 RMK A01 T02970183  RH  050%=      5-min Rain = 0
KHA3 241856Z 16015G20KT 30/18 A2978 RMK A01 T02970182  RH  050%=      5-min Rain = 0
KHA3 241857Z 16017KT 30/18 A2977 RMK A01 T02970183  RH  050%=      5-min Rain = 0
KHA3 241858Z 17017G22KT 30/19 A2977 RMK A01 T02960185  RH  051%=      5-min Rain = 0
KHA3 241859Z 17018KT 30/19 A2977 RMK A01 T02970185  RH  051%=      5-min Rain = 0
KHA3 241900Z 17017KT 30/19 A2977 RMK A01 T02990189  RH  052%=      5-min Rain = 0
KHA3 241901Z 19020KT 30/19 A2977 RMK A01 T03010186  RH  050%=      5-min Rain = 0
KHA3 241902Z 20017G22KT 30/19 A2977 RMK A01 T03000185  RH  050%=      5-min Rain = 0
KHA3 241903Z 20018KT 30/18 A2977 RMK A01 T02990184  RH  050%=      5-min Rain = 0
KHA3 241904Z 19017KT 30/19 A2977 RMK A01 T02990188  RH  051%=      5-min Rain = 0
KHA3 241905Z 17014KT 30/18 A2977 RMK A01 T03000184  RH  050%=      5-min Rain = 0
KHA3 241906Z 16014KT 30/19 A2977 RMK A01 T02990186  RH  051%=      5-min Rain = 0
KHA3 241907Z 17017KT 30/19 A2977 RMK A01 T02990187  RH  051%=      5-min Rain = 0
KHA3 241908Z 18018KT 30/19 A2977 RMK A01 T02980188  RH  052%=      5-min Rain = 0
KHA3 241909Z 18022KT 30/19 A2977 RMK A01 T02970187  RH  051%=      5-min Rain = 0
KHA3 241910Z 19014KT 29/19 A2977 RMK A01 T02940186  RH  052%=      5-min Rain = 0
KHA3 241911Z 20018KT 29/19 A2977 RMK A01 T02930185  RH  052%=      5-min Rain = 0
KHA3 241912Z 19018KT 29/18 A2977 RMK A01 T02930184  RH  052%=      5-min Rain = 0
KHA3 241913Z 18018KT 29/19 A2977 RMK A01 T02940185  RH  052%=      5-min Rain = 0
KHA3 241914Z 18016KT 30/19 A2977 RMK A01 T02960187  RH  052%=      5-min Rain = 0
KHA3 241915Z 18014KT 30/19 A2977 RMK A01 T02990188  RH  051%=      5-min Rain = 0
KHA3 241916Z 19015KT 30/19 A2977 RMK A01 T03010189  RH  051%=      5-min Rain = 0
KHA3 241917Z 16019G25KT 30/19 A2977 RMK A01 T03020188  RH  051%=      5-min Rain = 0
KHA3 241918Z 20015G21KT 30/19 A2977 RMK A01 T03010188  RH  051%=      5-min Rain = 0
KHA3 241919Z 19012KT 30/19 A2977 RMK A01 T03010188  RH  051%=      5-min Rain = 0
KHA3 241920Z 17012G19KT 30/19 A2977 RMK A01 T02970188  RH  052%=      5-min Rain = 0
KHA3 241921Z 17013KT 30/19 A2977 RMK A01 T02980193  RH  053%=      5-min Rain = 0
KHA3 241922Z 17016KT 30/19 A2977 RMK A01 T03020190  RH  051%=      5-min Rain = 0
KHA3 241923Z 17012KT 30/19 A2977 RMK A01 T03020192  RH  052%=      5-min Rain = 0
KHA3 241924Z 17016G21KT 30/19 A2977 RMK A01 T03040192  RH  051%=      5-min Rain = 0
KHA3 241925Z 18014KT 30/19 A2977 RMK A01 T03030189  RH  051%=      5-min Rain = 0
KHA3 241926Z 19013KT 30/19 A2976 RMK A01 T02990191  RH  052%=      5-min Rain = 0
KHA3 241927Z 19019KT 30/19 A2976 RMK A01 T03010190  RH  051%=      5-min Rain = 0
KHA3 241928Z 18018KT 30/19 A2976 RMK A01 T03010189  RH  051%=      5-min Rain = 0
KHA3 241929Z 18016KT 30/19 A2976 RMK A01 T03010191  RH  052%=      5-min Rain = 0
KHA3 241930Z 18015KT 30/19 A2976 RMK A01 T03030189  RH  051%=      5-min Rain = 0
KHA3 241931Z 18014KT 30/19 A2976 RMK A01 T03020190  RH  051%=      5-min Rain = 0
KHA3 241932Z 20014KT 30/19 A2976 RMK A01 T03020191  RH  052%=      5-min Rain = 0
KHA3 241933Z 21012KT 30/19 A2976 RMK A01 T03030190  RH  051%=      5-min Rain = 0
KHA3 241934Z 20013KT 30/19 A2976 RMK A01 T03030191  RH  051%=      5-min Rain = 0
KHA3 241935Z 18015KT 30/19 A2976 RMK A01 T03030192  RH  051%=      5-min Rain = 0
KHA3 241936Z 16013G18KT 30/19 A2976 RMK A01 T03010193  RH  052%=      5-min Rain = 0
KHA3 241937Z 17016KT 30/19 A2976 RMK A01 T03040192  RH  051%=      5-min Rain = 0
KHA3 241938Z 18015KT 31/19 A2976 RMK A01 T03050189  RH  050%=      5-min Rain = 0
KHA3 241939Z 18014KT 30/19 A2976 RMK A01 T03020190  RH  051%=      5-min Rain = 0
KHA3 241940Z 18015G20KT 30/19 A2976 RMK A01 T03030194  RH  052%=      5-min Rain = 0
KHA3 241941Z 17019KT 31/19 A2976 RMK A01 T03060190  RH  050%=      5-min Rain = 0
KHA3 241942Z 17014KT 30/19 A2976 RMK A01 T03040186  RH  049%=      5-min Rain = 0
KHA3 241943Z 16012G17KT 30/19 A2976 RMK A01 T03010190  RH  051%=      5-min Rain = 0
KHA3 241944Z 17014KT 30/19 A2976 RMK A01 T03020189  RH  051%=      5-min Rain = 0
KHA3 241945Z 16015KT 30/19 A2976 RMK A01 T03020191  RH  052%=      5-min Rain = 0
KHA3 241946Z 17018KT 30/19 A2975 RMK A01 T03030190  RH  051%=      5-min Rain = 0
KHA3 241947Z 16016KT 30/19 A2976 RMK A01 T03020190  RH  051%=      5-min Rain = 0
KHA3 241948Z 17015KT 30/19 A2976 RMK A01 T03020190  RH  051%=      5-min Rain = 0
KHA3 241949Z 17016KT 30/19 A2976 RMK A01 T03030189  RH  051%=      5-min Rain = 0
KHA3 241950Z 17012KT 30/19 A2976 RMK A01 T03010186  RH  050%=      5-min Rain = 0
KHA3 241951Z 19013KT 30/19 A2976 RMK A01 T02980188  RH  052%=      5-min Rain = 0
KHA3 241952Z 20015KT 30/19 A2975 RMK A01 T02990191  RH  052%=      5-min Rain = 0
KHA3 241953Z 21016KT 30/19 A2975 RMK A01 T03030191  RH  051%=      5-min Rain = 0
KHA3 241954Z 20014KT 31/19 A2975 RMK A01 T03050192  RH  051%=      5-min Rain = 0
KHA3 241955Z 18014KT 31/19 A2975 RMK A01 T03070188  RH  049%=      5-min Rain = 0
KHA3 241956Z 18011KT 31/19 A2975 RMK A01 T03050191  RH  050%=      5-min Rain = 0
KHA3 241957Z 19010KT 30/19 A2975 RMK A01 T03030190  RH  051%=      5-min Rain = 0
KHA3 241958Z 18015KT 30/19 A2975 RMK A01 T03020192  RH  052%=      5-min Rain = 0
KHA3 241959Z 20014KT 31/19 A2975 RMK A01 T03050193  RH  051%=      5-min Rain = 0
KHA3 242000Z 19013KT 31/19 A2975 RMK A01 T03050189  RH  050%=      5-min Rain = 0
KHA3 242001Z 18012KT 30/19 A2975 RMK A01 T03020191  RH  051%=      5-min Rain = 0
KHA3 242002Z 18014KT 30/19 A2975 RMK A01 T03020191  RH  051%=      5-min Rain = 0
KHA3 242003Z 20014KT 31/19 A2975 RMK A01 T03070193  RH  051%=      5-min Rain = 0
KHA3 242004Z 18014KT 31/19 A2975 RMK A01 T03080188  RH  049%=      5-min Rain = 0
KHA3 242005Z 17012KT 31/19 A2975 RMK A01 T03060191  RH  050%=      5-min Rain = 0
KHA3 242006Z 20015KT 31/19 A2975 RMK A01 T03060191  RH  050%=      5-min Rain = 0
KHA3 242007Z 19016KT 31/19 A2975 RMK A01 T03050191  RH  051%=      5-min Rain = 0
KHA3 242008Z 20014KT 31/19 A2975 RMK A01 T03080190  RH  049%=      5-min Rain = 0
KHA3 242009Z 20014KT 31/19 A2975 RMK A01 T03090193  RH  050%=      5-min Rain = 0
KHA3 242010Z 21016KT 31/19 A2975 RMK A01 T03100192  RH  049%=      5-min Rain = 0
KHA3 242011Z 22012G18KT 31/19 A2975 RMK A01 T03110189  RH  048%=      5-min Rain = 0
KHA3 242012Z 20011KT 31/19 A2975 RMK A01 T03110193  RH  049%=      5-min Rain = 0
KHA3 242013Z 18011KT 31/19 A2975 RMK A01 T03120193  RH  049%=      5-min Rain = 0
KHA3 242014Z 17011G16KT 31/19 A2975 RMK A01 T03120194  RH  050%=      5-min Rain = 0
KHA3 242015Z 19014KT 31/19 A2975 RMK A01 T03110191  RH  049%=      5-min Rain = 0
KHA3 242016Z 19014G19KT 31/19 A2975 RMK A01 T03110193  RH  050%=      5-min Rain = 0
KHA3 242017Z 17017KT 31/19 A2975 RMK A01 T03110193  RH  049%=      5-min Rain = 0
KHA3 242018Z 16016KT 31/19 A2975 RMK A01 T03100189  RH  049%=      5-min Rain = 0
KHA3 242019Z 18012KT 31/19 A2975 RMK A01 T03050191  RH  051%=      5-min Rain = 0
KHA3 242020Z 19012KT 30/19 A2975 RMK A01 T03030190  RH  051%=      5-min Rain = 0
KHA3 242021Z 18012KT 30/19 A2975 RMK A01 T03000190  RH  052%=      5-min Rain = 0
KHA3 242022Z 18013KT 30/19 A2975 RMK A01 T02990186  RH  051%=      5-min Rain = 0
KHA3 242023Z 18011KT 30/19 A2975 RMK A01 T02970188  RH  052%=      5-min Rain = 0
KHA3 242024Z 18012G17KT 30/19 A2975 RMK A01 T02990190  RH  052%=      5-min Rain = 0
KHA3 242025Z 20014G19KT 30/19 A2975 RMK A01 T03040194  RH  052%=      5-min Rain = 0
KHA3 242026Z 19015KT 31/19 A2975 RMK A01 T03070194  RH  051%=      5-min Rain = 0
KHA3 242027Z 18014KT 31/19 A2975 RMK A01 T03080192  RH  050%=      5-min Rain = 0
KHA3 242028Z 18013KT 31/19 A2975 RMK A01 T03060191  RH  050%=      5-min Rain = 0
KHA3 242029Z 20012KT 30/19 A2975 RMK A01 T03040191  RH  051%=      5-min Rain = 0
KHA3 242030Z 21012KT 30/19 A2975 RMK A01 T03030191  RH  051%=      5-min Rain = 0
KHA3 242031Z 20012KT 31/19 A2975 RMK A01 T03050193  RH  051%=      5-min Rain = 0
KHA3 242032Z 19011KT 31/19 A2975 RMK A01 T03080192  RH  050%=      5-min Rain = 0
KHA3 242033Z 20008KT 31/19 A2975 RMK A01 T03060188  RH  050%=      5-min Rain = 0
KHA3 242034Z 17010G17KT 30/19 A2975 RMK A01 T03020192  RH  052%=      5-min Rain = 0
KHA3 242035Z 18014KT 30/19 A2975 RMK A01 T03040193  RH  052%=      5-min Rain = 0
KHA3 242036Z 19014KT 31/19 A2975 RMK A01 T03100193  RH  050%=      5-min Rain = 0
KHA3 242037Z 20015KT 31/19 A2975 RMK A01 T03110193  RH  050%=      5-min Rain = 0
KHA3 242038Z 20012KT 31/19 A2975 RMK A01 T03110191  RH  049%=      5-min Rain = 0
KHA3 242039Z 20009KT 31/19 A2975 RMK A01 T03110191  RH  049%=      5-min Rain = 0
KHA3 242040Z 20009KT 31/19 A2974 RMK A01 T03100192  RH  049%=      5-min Rain = 0
KHA3 242041Z 20012G17KT 31/19 A2974 RMK A01 T03100193  RH  050%=      5-min Rain = 0
KHA3 242042Z 22011KT 31/19 A2974 RMK A01 T03120192  RH  049%=      5-min Rain = 0
KHA3 242043Z 20011KT 31/19 A2974 RMK A01 T03130192  RH  049%=      5-min Rain = 0
KHA3 242044Z 18012KT 31/19 A2974 RMK A01 T03130192  RH  049%=      5-min Rain = 0
KHA3 242045Z 18008KT 31/20 A2974 RMK A01 T03130196  RH  050%=      5-min Rain = 0
KHA3 242046Z 17008KT 31/19 A2974 RMK A01 T03120192  RH  049%=      5-min Rain = 0
KHA3 242047Z 18010KT 31/19 A2974 RMK A01 T03100194  RH  050%=      5-min Rain = 0
KHA3 242048Z 17013KT 31/19 A2974 RMK A01 T03070190  RH  050%=      5-min Rain = 0
KHA3 242049Z 16011KT 30/19 A2974 RMK A01 T03030189  RH  051%=      5-min Rain = 0
KHA3 242050Z 15012KT 30/19 A2974 RMK A01 T03020192  RH  052%=      5-min Rain = 0
KHA3 242051Z 16015KT 30/19 A2974 RMK A01 T03010191  RH  052%=      5-min Rain = 0
KHA3 242052Z 18013KT 30/19 A2974 RMK A01 T03020193  RH  052%=      5-min Rain = 0
KHA3 242053Z 18014KT 30/19 A2974 RMK A01 T03020190  RH  051%=      5-min Rain = 0
KHA3 242054Z 19012KT 30/19 A2974 RMK A01 T03010189  RH  051%=      5-min Rain = 0
KHA3 242055Z 21012KT 30/20 A2973 RMK A01 T03010196  RH  053%=      5-min Rain = 0
KHA3 242056Z 21013KT 31/19 A2973 RMK A01 T03070190  RH  050%=      5-min Rain = 0
KHA3 242057Z 20010KT 31/19 A2973 RMK A01 T03080192  RH  050%=      5-min Rain = 0
KHA3 242058Z 19012KT 31/20 A2973 RMK A01 T03100195  RH  050%=      5-min Rain = 0
KHA3 242059Z 19014KT 31/20 A2973 RMK A01 T03140195  RH  049%=      5-min Rain = 0
KHA3 242100Z 19016KT 32/19 A2973 RMK A01 T03150190  RH  048%=      5-min Rain = 0
KHA3 242101Z 19011KT 31/19 A2973 RMK A01 T03130191  RH  048%=      5-min Rain = 0
KHA3 242102Z 20013G18KT 31/19 A2973 RMK A01 T03120193  RH  049%=      5-min Rain = 0
KHA3 242103Z 21015KT 31/19 A2973 RMK A01 T03130192  RH  049%=      5-min Rain = 0
KHA3 242104Z 22012KT 31/19 A2973 RMK A01 T03120191  RH  049%=      5-min Rain = 0
KHA3 242105Z 21013G18KT 31/19 A2972 RMK A01 T03120190  RH  048%=      5-min Rain = 0
KHA3 242106Z 18015KT 31/20 A2972 RMK A01 T03110195  RH  050%=      5-min Rain = 0
KHA3 242107Z 18014KT 31/19 A2972 RMK A01 T03120191  RH  049%=      5-min Rain = 0
KHA3 242108Z 18012KT 31/19 A2972 RMK A01 T03100189  RH  048%=      5-min Rain = 0
KHA3 242109Z 17011KT 31/19 A2972 RMK A01 T03090193  RH  050%=      5-min Rain = 0
KHA3 242110Z 17009KT 31/19 A2972 RMK A01 T03110189  RH  048%=      5-min Rain = 0
KHA3 242111Z 18008KT 31/19 A2972 RMK A01 T03100192  RH  049%=      5-min Rain = 0
KHA3 242112Z 19012KT 31/19 A2972 RMK A01 T03110194  RH  050%=      5-min Rain = 0
KHA3 242113Z 21013KT 31/19 A2972 RMK A01 T03130191  RH  048%=      5-min Rain = 0
KHA3 242114Z 20014KT 31/20 A2972 RMK A01 T03140195  RH  049%=      5-min Rain = 0
KHA3 242115Z 20012KT 32/19 A2972 RMK A01 T03150191  RH  048%=      5-min Rain = 0
KHA3 242116Z 19010KT 31/19 A2972 RMK A01 T03140192  RH  048%=      5-min Rain = 0
KHA3 242117Z 17013KT 31/20 A2972 RMK A01 T03130195  RH  049%=      5-min Rain = 0
KHA3 242118Z 19014KT 31/19 A2972 RMK A01 T03140189  RH  047%=      5-min Rain = 0
KHA3 242119Z 19013KT 31/19 A2972 RMK A01 T03130191  RH  048%=      5-min Rain = 0
KHA3 242120Z 17014KT 31/19 A2972 RMK A01 T03130191  RH  048%=      5-min Rain = 0
KHA3 242121Z 19010KT 31/19 A2972 RMK A01 T03130194  RH  049%=      5-min Rain = 0
KHA3 242122Z 21012KT 32/19 A2972 RMK A01 T03160192  RH  048%=      5-min Rain = 0
KHA3 242123Z 21011KT 32/19 A2971 RMK A01 T03160188  RH  047%=      5-min Rain = 0
KHA3 242124Z 21009KT 31/19 A2971 RMK A01 T03140191  RH  048%=      5-min Rain = 0
KHA3 242125Z 19012KT 31/19 A2971 RMK A01 T03140193  RH  049%=      5-min Rain = 0
KHA3 242126Z 18011KT 31/19 A2971 RMK A01 T03140192  RH  048%=      5-min Rain = 0
KHA3 242127Z 19011KT 32/19 A2971 RMK A01 T03150192  RH  048%=      5-min Rain = 0
KHA3 242128Z 18009KT 31/19 A2971 RMK A01 T03140186  RH  047%=      5-min Rain = 0
KHA3 242129Z 16011KT 31/19 A2971 RMK A01 T03130193  RH  049%=      5-min Rain = 0
KHA3 242130Z 16013KT 31/19 A2971 RMK A01 T03140192  RH  048%=      5-min Rain = 0
KHA3 242131Z 17013KT 32/19 A2971 RMK A01 T03160191  RH  048%=      5-min Rain = 0
KHA3 242132Z 20012KT 32/19 A2971 RMK A01 T03160190  RH  047%=      5-min Rain = 0
KHA3 242133Z 21012KT 32/19 A2971 RMK A01 T03160191  RH  048%=      5-min Rain = 0
KHA3 242134Z 18011KT 32/19 A2971 RMK A01 T03160191  RH  048%=      5-min Rain = 0
KHA3 242135Z 19009KT 32/19 A2971 RMK A01 T03160194  RH  048%=      5-min Rain = 0
KHA3 242136Z 19009KT 32/19 A2971 RMK A01 T03170192  RH  048%=      5-min Rain = 0
KHA3 242137Z 17008KT 32/20 A2971 RMK A01 T03170196  RH  049%=      5-min Rain = 0
KHA3 242138Z 14012KT 32/20 A2971 RMK A01 T03190196  RH  048%=      5-min Rain = 0
KHA3 242139Z 15013KT 32/19 A2971 RMK A01 T03190193  RH  047%=      5-min Rain = 0
KHA3 242140Z 16011KT 32/19 A2971 RMK A01 T03180192  RH  047%=      5-min Rain = 0
KHA3 242141Z 17010KT 32/19 A2971 RMK A01 T03170193  RH  048%=      5-min Rain = 0
KHA3 242142Z 16007KT 32/19 A2971 RMK A01 T03160194  RH  048%=      5-min Rain = 0
KHA3 242143Z 14011G18KT 32/20 A2971 RMK A01 T03170196  RH  049%=      5-min Rain = 0
KHA3 242144Z 15011KT 32/19 A2971 RMK A01 T03190193  RH  047%=      5-min Rain = 0
KHA3 242145Z 15010KT 32/19 A2971 RMK A01 T03180193  RH  048%=      5-min Rain = 0
KHA3 242146Z 17009KT 32/19 A2971 RMK A01 T03170194  RH  048%=      5-min Rain = 0
KHA3 242147Z 14008KT 32/20 A2971 RMK A01 T03180196  RH  048%=      5-min Rain = 0
KHA3 242148Z 15008KT 32/19 A2971 RMK A01 T03190191  RH  047%=      5-min Rain = 0
KHA3 242149Z 16009KT 32/20 A297 RMK A01 T03190198  RH  049%=      5-min Rain = 0
KHA3 242150Z 17013G18KT 32/19 A297 RMK A01 T03210193  RH  047%=      5-min Rain = 0
KHA3 242151Z 17014KT 32/19 A297 RMK A01 T03190191  RH  047%=      5-min Rain = 0
KHA3 242152Z 16009KT 32/20 A297 RMK A01 T03170195  RH  048%=      5-min Rain = 0
KHA3 242153Z 15009KT 32/19 A297 RMK A01 T03180194  RH  048%=      5-min Rain = 0
KHA3 242154Z 15010KT 32/19 A297 RMK A01 T03200191  RH  046%=      5-min Rain = 0
KHA3 242155Z 15010KT 32/19 A297 RMK A01 T03190189  RH  046%=      5-min Rain = 0
KHA3 242156Z 14012KT 32/19 A297 RMK A01 T03160186  RH  046%=      5-min Rain = 0
KHA3 242157Z 14012KT 32/19 A297 RMK A01 T03160191  RH  048%=      5-min Rain = 0
KHA3 242158Z 15013KT 32/19 A297 RMK A01 T03170188  RH  046%=      5-min Rain = 0
KHA3 242159Z 17012KT 32/19 A297 RMK A01 T03170188  RH  046%=      5-min Rain = 0
KHA3 242200Z 17010KT 32/19 A2969 RMK A01 T03160191  RH  047%=      5-min Rain = 0
KHA3 242201Z 18012KT 32/19 A2969 RMK A01 T03170190  RH  047%=      5-min Rain = 0
KHA3 242202Z 15012KT 32/19 A2969 RMK A01 T03170192  RH  047%=      5-min Rain = 0
KHA3 242203Z 15013KT 32/19 A2969 RMK A01 T03180187  RH  046%=      5-min Rain = 0
KHA3 242204Z 14009KT 32/19 A2969 RMK A01 T03180190  RH  047%=      5-min Rain = 0
KHA3 242205Z 14009KT 32/19 A2969 RMK A01 T03190192  RH  047%=      5-min Rain = 0
KHA3 242206Z 13013KT 32/19 A2969 RMK A01 T03200187  RH  045%=      5-min Rain = 0
KHA3 242207Z 14011KT 32/19 A2969 RMK A01 T03170186  RH  046%=      5-min Rain = 0
KHA3 242208Z 13008KT 32/19 A2969 RMK A01 T03160186  RH  046%=      5-min Rain = 0
KHA3 242209Z 15007KT 32/19 A2969 RMK A01 T03160187  RH  046%=      5-min Rain = 0
KHA3 242210Z 16010KT 32/19 A2969 RMK A01 T03170191  RH  047%=      5-min Rain = 0
KHA3 242211Z 15010KT 32/19 A2969 RMK A01 T03180186  RH  046%=      5-min Rain = 0
KHA3 242212Z 14010KT 32/18 A2969 RMK A01 T03180184  RH  045%=      5-min Rain = 0
KHA3 242213Z 13011KT 32/19 A2968 RMK A01 T03180188  RH  046%=      5-min Rain = 0
KHA3 242214Z 14013KT 32/19 A2968 RMK A01 T03180188  RH  046%=      5-min Rain = 0
KHA3 242215Z 14011KT 32/19 A2968 RMK A01 T03170188  RH  046%=      5-min Rain = 0
KHA3 242216Z 15009KT 32/19 A2968 RMK A01 T03150190  RH  047%=      5-min Rain = 0
KHA3 242217Z 14009KT 32/19 A2968 RMK A01 T03150191  RH  048%=      5-min Rain = 0
KHA3 242218Z 13013KT 32/19 A2968 RMK A01 T03170192  RH  047%=      5-min Rain = 0
KHA3 242219Z 13013KT 32/19 A2968 RMK A01 T03170190  RH  047%=      5-min Rain = 0
KHA3 242220Z 13011KT 32/19 A2968 RMK A01 T03160188  RH  047%=      5-min Rain = 0
KHA3 242221Z 13011KT 32/19 A2968 RMK A01 T03160190  RH  047%=      5-min Rain = 0
KHA3 242222Z 13008G13KT 32/19 A2967 RMK A01 T03160190  RH  047%=      5-min Rain = 0
KHA3 242223Z 12009KT 32/19 A2967 RMK A01 T03170192  RH  048%=      5-min Rain = 0
KHA3 242224Z 14011KT 32/19 A2967 RMK A01 T03190190  RH  046%=      5-min Rain = 0
KHA3 242225Z 13010KT 32/19 A2967 RMK A01 T03190188  RH  046%=      5-min Rain = 0
KHA3 242226Z 13012KT 32/19 A2967 RMK A01 T03180191  RH  047%=      5-min Rain = 0
KHA3 242227Z 14010KT 32/19 A2967 RMK A01 T03180193  RH  047%=      5-min Rain = 0
KHA3 242228Z 14011KT 32/19 A2967 RMK A01 T03180187  RH  046%=      5-min Rain = 0
KHA3 242229Z 12010KT 32/19 A2967 RMK A01 T03160187  RH  046%=      5-min Rain = 0
KHA3 242230Z 13008KT 32/19 A2967 RMK A01 T03150188  RH  047%=      5-min Rain = 0
KHA3 242231Z 14006KT 32/19 A2967 RMK A01 T03150185  RH  046%=      5-min Rain = 0
KHA3 242232Z 12009KT 31/19 A2967 RMK A01 T03140188  RH  047%=      5-min Rain = 0
KHA3 242233Z 11009KT 32/19 A2967 RMK A01 T03150186  RH  046%=      5-min Rain = 0
KHA3 242234Z 11009KT 32/19 A2966 RMK A01 T03160187  RH  046%=      5-min Rain = 0
KHA3 242235Z 14012KT 32/19 A2966 RMK A01 T03170188  RH  046%=      5-min Rain = 0
KHA3 242236Z 16011KT 32/19 A2966 RMK A01 T03180191  RH  047%=      5-min Rain = 0
KHA3 242237Z 17012KT 32/19 A2966 RMK A01 T03200190  RH  046%=      5-min Rain = 0
KHA3 242238Z 17010KT 32/19 A2966 RMK A01 T03190188  RH  046%=      5-min Rain = 0
KHA3 242239Z 18009KT 32/19 A2966 RMK A01 T03180190  RH  047%=      5-min Rain = 0
KHA3 242240Z 17009KT 32/18 A2966 RMK A01 T03170183  RH  045%=      5-min Rain = 0
KHA3 242241Z 17010KT 32/19 A2966 RMK A01 T03180185  RH  045%=      5-min Rain = 0
KHA3 242242Z 17013KT 32/18 A2966 RMK A01 T03170182  RH  045%=      5-min Rain = 0
KHA3 242243Z 16012KT 32/18 A2966 RMK A01 T03170183  RH  045%=      5-min Rain = 0
KHA3 242244Z 15010KT 32/18 A2966 RMK A01 T03170181  RH  044%=      5-min Rain = 0
KHA3 242245Z 12010KT 32/18 A2966 RMK A01 T03180183  RH  045%=      5-min Rain = 0
KHA3 242246Z 14009KT 32/18 A2966 RMK A01 T03180183  RH  045%=      5-min Rain = 0
KHA3 242247Z 15007KT 32/18 A2966 RMK A01 T03180182  RH  044%=      5-min Rain = 0
KHA3 242248Z 13007KT 32/18 A2966 RMK A01 T03180184  RH  045%=      5-min Rain = 0
KHA3 242249Z 12009KT 32/18 A2966 RMK A01 T03180184  RH  045%=      5-min Rain = 0
KHA3 242250Z 13008KT 32/19 A2966 RMK A01 T03190185  RH  045%=      5-min Rain = 0
KHA3 242251Z 14009KT 32/19 A2966 RMK A01 T03190186  RH  045%=      5-min Rain = 0
KHA3 242252Z 16011KT 32/19 A2966 RMK A01 T03200188  RH  046%=      5-min Rain = 0
KHA3 242253Z 15008KT 32/19 A2966 RMK A01 T03200186  RH  045%=      5-min Rain = 0
KHA3 242254Z 15007KT 32/19 A2965 RMK A01 T03200188  RH  046%=      5-min Rain = 0
KHA3 242255Z 14008KT 32/19 A2965 RMK A01 T03200187  RH  045%=      5-min Rain = 0
KHA3 242256Z 13007KT 32/19 A2965 RMK A01 T03190188  RH  046%=      5-min Rain = 0
KHA3 242257Z 14011KT 32/19 A2965 RMK A01 T03200192  RH  047%=      5-min Rain = 0
KHA3 242258Z 14012KT 32/19 A2965 RMK A01 T03210188  RH  045%=      5-min Rain = 0
KHA3 242259Z 14011KT 32/19 A2965 RMK A01 T03200186  RH  045%=      5-min Rain = 0
KHA3 242300Z 14012KT 32/19 A2965 RMK A01 T03190186  RH  045%=      5-min Rain = 0
KHA3 242301Z 14012KT 32/18 A2965 RMK A01 T03180184  RH  045%=      5-min Rain = 0
KHA3 242302Z 13010KT 32/18 A2965 RMK A01 T03170182  RH  045%=      5-min Rain = 0
KHA3 242303Z 13009KT 32/18 A2965 RMK A01 T03160182  RH  045%=      5-min Rain = 0
KHA3 242304Z 13011KT 32/18 A2965 RMK A01 T03160183  RH  045%=      5-min Rain = 0
KHA3 242305Z 13009KT 32/18 A2965 RMK A01 T03160182  RH  045%=      5-min Rain = 0
KHA3 242306Z 13007KT 32/19 A2965 RMK A01 T03170189  RH  047%=      5-min Rain = 0
KHA3 242307Z 13009KT 32/19 A2965 RMK A01 T03200188  RH  046%=      5-min Rain = 0
KHA3 242308Z 13011KT 32/19 A2965 RMK A01 T03210186  RH  045%=      5-min Rain = 0
KHA3 242309Z 13009KT 32/19 A2965 RMK A01 T03200187  RH  045%=      5-min Rain = 0
KHA3 242310Z 14010KT 32/19 A2965 RMK A01 T03200186  RH  045%=      5-min Rain = 0
KHA3 242311Z 13012KT 32/18 A2965 RMK A01 T03190183  RH  044%=      5-min Rain = 0
KHA3 242312Z 13012KT 32/18 A2965 RMK A01 T03170184  RH  045%=      5-min Rain = 0
KHA3 242313Z 13010KT 32/19 A2965 RMK A01 T03170185  RH  045%=      5-min Rain = 0
KHA3 242314Z 14011KT 32/18 A2965 RMK A01 T03170184  RH  045%=      5-min Rain = 0
KHA3 242315Z 13011KT 32/18 A2965 RMK A01 T03170182  RH  045%=      5-min Rain = 0
KHA3 242316Z 15013KT 32/18 A2965 RMK A01 T03160184  RH  045%=      5-min Rain = 0
KHA3 242317Z 16012KT 32/18 A2965 RMK A01 T03150183  RH  046%=      5-min Rain = 0
KHA3 242318Z 16012KT 32/19 A2965 RMK A01 T03150185  RH  046%=      5-min Rain = 0
KHA3 242319Z 13012KT 32/19 A2965 RMK A01 T03160185  RH  046%=      5-min Rain = 0
KHA3 242320Z 13014KT 32/18 A2965 RMK A01 T03180183  RH  045%=      5-min Rain = 0
KHA3 242321Z 14011KT 32/18 A2965 RMK A01 T03180184  RH  045%=      5-min Rain = 0
KHA3 242322Z 13011G16KT 32/18 A2965 RMK A01 T03180184  RH  045%=      5-min Rain = 0
KHA3 242323Z 14011KT 32/18 A2965 RMK A01 T03180183  RH  045%=      5-min Rain = 0
KHA3 242324Z 13010KT 32/18 A2965 RMK A01 T03180182  RH  045%=      5-min Rain = 0
KHA3 242325Z 12012KT 32/18 A2965 RMK A01 T03180183  RH  045%=      5-min Rain = 0
KHA3 242326Z 12011KT 32/18 A2965 RMK A01 T03180183  RH  045%=      5-min Rain = 0
KHA3 242327Z 12011KT 32/18 A2965 RMK A01 T03170184  RH  045%=      5-min Rain = 0
KHA3 242328Z 14009KT 32/19 A2965 RMK A01 T03180187  RH  046%=      5-min Rain = 0
KHA3 242329Z 12008KT 32/19 A2965 RMK A01 T03200186  RH  045%=      5-min Rain = 0
KHA3 242330Z 13011KT 32/19 A2965 RMK A01 T03210186  RH  045%=      5-min Rain = 0
KHA3 242331Z 13013KT 32/18 A2965 RMK A01 T03220183  RH  044%=      5-min Rain = 0
KHA3 242332Z 15014KT 32/18 A2965 RMK A01 T03200183  RH  044%=      5-min Rain = 0
KHA3 242333Z 15011KT 32/19 A2964 RMK A01 T03190187  RH  045%=      5-min Rain = 0
KHA3 242334Z 14011KT 32/19 A2965 RMK A01 T03190188  RH  046%=      5-min Rain = 0
KHA3 242335Z 13011KT 32/19 A2964 RMK A01 T03190188  RH  046%=      5-min Rain = 0
KHA3 242336Z 11013G18KT 32/19 A2964 RMK A01 T03190187  RH  045%=      5-min Rain = 0
KHA3 242337Z 13017G22KT 32/19 A2964 RMK A01 T03180185  RH  045%=      5-min Rain = 0
KHA3 242338Z 14016KT 32/18 A2964 RMK A01 T03160182  RH  045%=      5-min Rain = 0
KHA3 242339Z 13014KT 31/18 A2964 RMK A01 T03140182  RH  046%=      5-min Rain = 0
KHA3 242340Z 13014KT 31/18 A2964 RMK A01 T03120183  RH  046%=      5-min Rain = 0
KHA3 242341Z 13014KT 31/18 A2964 RMK A01 T03110182  RH  046%=      5-min Rain = 0
KHA3 242342Z 13012KT 31/18 A2964 RMK A01 T03090183  RH  047%=      5-min Rain = 0
KHA3 242343Z 12012KT 31/18 A2964 RMK A01 T03080184  RH  047%=      5-min Rain = 0
KHA3 242344Z 12011KT 31/19 A2964 RMK A01 T03060185  RH  048%=      5-min Rain = 0
KHA3 242345Z 12013KT 31/19 A2964 RMK A01 T03050185  RH  049%=      5-min Rain = 0
KHA3 242346Z 12012KT 31/18 A2964 RMK A01 T03050183  RH  048%=      5-min Rain = 0
KHA3 242347Z 13010KT 30/19 A2964 RMK A01 T03040185  RH  049%=      5-min Rain = 0
KHA3 242348Z 12009KT 30/19 A2964 RMK A01 T03030186  RH  049%=      5-min Rain = 0
KHA3 242349Z 12012KT 30/18 A2964 RMK A01 T03020184  RH  049%=      5-min Rain = 0
KHA3 242350Z 13011KT 30/18 A2964 RMK A01 T03030182  RH  049%=      5-min Rain = 0
KHA3 242351Z 13011KT 30/18 A2964 RMK A01 T03030181  RH  048%=      5-min Rain = 0
KHA3 242352Z 13011KT 30/18 A2964 RMK A01 T03030183  RH  048%=      5-min Rain = 0
KHA3 242353Z 13012KT 30/18 A2964 RMK A01 T03030182  RH  048%=      5-min Rain = 0
KHA3 242354Z 14011KT 30/18 A2964 RMK A01 T03040182  RH  048%=      5-min Rain = 0
KHA3 242355Z 13009KT 30/18 A2964 RMK A01 T03040184  RH  049%=      5-min Rain = 0
KHA3 242356Z 13013KT 30/18 A2964 RMK A01 T03040183  RH  048%=      5-min Rain = 0
KHA3 242357Z 13011KT 30/18 A2964 RMK A01 T03040183  RH  048%=      5-min Rain = 0
KHA3 242358Z 12011KT 31/18 A2964 RMK A01 T03050184  RH  049%=      5-min Rain = 0
KHA3 242359Z 12013G18KT 30/18 A2964 RMK A01 T03040184  RH  049%=      5-min Rain = 0
KHA3 250000Z 12015KT 30/18 A2964 RMK A01 T03040183  RH  048%=      5-min Rain = 0
KHA3 250001Z 12012KT 30/19 A2964 RMK A01 T03040185  RH  049%=      5-min Rain = 0
KHA3 250002Z 12012KT 30/19 A2964 RMK A01 T03040185  RH  049%=      5-min Rain = 0
KHA3 250003Z 12013KT 30/19 A2964 RMK A01 T03040185  RH  049%=      5-min Rain = 0
KHA3 250004Z 11013KT 30/18 A2964 RMK A01 T03030184  RH  049%=      5-min Rain = 0
KHA3 250005Z 11012KT 30/19 A2964 RMK A01 T03030185  RH  049%=      5-min Rain = 0
KHA3 250006Z 11010KT 30/19 A2964 RMK A01 T03030185  RH  049%=      5-min Rain = 0
KHA3 250007Z 12011KT 30/19 A2964 RMK A01 T03020186  RH  050%=      5-min Rain = 0
KHA3 250008Z 12013KT 30/19 A2964 RMK A01 T03020185  RH  050%=      5-min Rain = 0
KHA3 250009Z 11012KT 30/18 A2964 RMK A01 T03020183  RH  049%=      5-min Rain = 0
KHA3 250010Z 11010KT 30/19 A2964 RMK A01 T03020185  RH  050%=      5-min Rain = 0
KHA3 250011Z 11010KT 30/19 A2964 RMK A01 T03010186  RH  050%=      5-min Rain = 0
KHA3 250012Z 11010KT 30/19 A2964 RMK A01 T03010188  RH  051%=      5-min Rain = 0
KHA3 250013Z 11011KT 30/19 A2963 RMK A01 T03000187  RH  051%=      5-min Rain = 0
KHA3 250014Z 11011KT 30/19 A2963 RMK A01 T03000188  RH  051%=      5-min Rain = 0
KHA3 250015Z 11012KT 30/19 A2963 RMK A01 T03000187  RH  051%=      5-min Rain = 0
KHA3 250016Z 11013KT 30/19 A2963 RMK A01 T03000187  RH  051%=      5-min Rain = 0
KHA3 250017Z 11013KT 30/19 A2963 RMK A01 T03000187  RH  051%=      5-min Rain = 0
KHA3 250018Z 11010KT 30/19 A2963 RMK A01 T02990188  RH  051%=      5-min Rain = 0
KHA3 250019Z 11010KT 30/19 A2963 RMK A01 T02990190  RH  052%=      5-min Rain = 0
KHA3 250020Z 11013KT 30/19 A2963 RMK A01 T02980189  RH  052%=      5-min Rain = 0
KHA3 250021Z 12014KT 30/19 A2963 RMK A01 T02970186  RH  051%=      5-min Rain = 0
KHA3 250022Z 11013KT 30/19 A2963 RMK A01 T02980185  RH  051%=      5-min Rain = 0
KHA3 250023Z 11011KT 30/19 A2963 RMK A01 T02980186  RH  051%=      5-min Rain = 0
KHA3 250024Z 11012KT 30/19 A2963 RMK A01 T02980187  RH  051%=      5-min Rain = 0
KHA3 250025Z 11011KT 30/19 A2963 RMK A01 T02970187  RH  052%=      5-min Rain = 0
KHA3 250026Z 11012KT 30/19 A2963 RMK A01 T02970187  RH  052%=      5-min Rain = 0
KHA3 250027Z 11012KT 30/19 A2963 RMK A01 T02960187  RH  052%=      5-min Rain = 0
KHA3 250028Z 11011KT 30/19 A2963 RMK A01 T02960187  RH  052%=      5-min Rain = 0
KHA3 250029Z 11012KT 30/19 A2963 RMK A01 T02960186  RH  052%=      5-min Rain = 0
KHA3 250030Z 11012KT 30/19 A2963 RMK A01 T02960186  RH  052%=      5-min Rain = 0
KHA3 250031Z 12012KT 30/19 A2963 RMK A01 T02960186  RH  052%=      5-min Rain = 0
KHA3 250032Z 11012KT 30/19 A2963 RMK A01 T02960186  RH  052%=      5-min Rain = 0
KHA3 250033Z 11010KT 30/19 A2963 RMK A01 T02950186  RH  052%=      5-min Rain = 0
KHA3 250034Z 11011KT 30/19 A2963 RMK A01 T02950187  RH  052%=      5-min Rain = 0
KHA3 250035Z 12010KT 29/19 A2963 RMK A01 T02940187  RH  052%=      5-min Rain = 0
KHA3 250036Z 11009KT 29/19 A2963 RMK A01 T02940187  RH  053%=      5-min Rain = 0
KHA3 250037Z 12009KT 29/19 A2963 RMK A01 T02930187  RH  053%=      5-min Rain = 0
KHA3 250038Z 12009KT 29/19 A2963 RMK A01 T02930187  RH  053%=      5-min Rain = 0
KHA3 250039Z 12009KT 29/19 A2963 RMK A01 T02930187  RH  053%=      5-min Rain = 0
KHA3 250040Z 12009KT 29/19 A2963 RMK A01 T02920187  RH  053%=      5-min Rain = 0
KHA3 250041Z 12011KT 29/19 A2963 RMK A01 T02920186  RH  053%=      5-min Rain = 0
KHA3 250042Z 12011KT 29/19 A2963 RMK A01 T02920186  RH  053%=      5-min Rain = 0
KHA3 250043Z 12010KT 29/19 A2963 RMK A01 T02920185  RH  053%=      5-min Rain = 0
KHA3 250044Z 12009KT 29/19 A2963 RMK A01 T02920185  RH  053%=      5-min Rain = 0
KHA3 250045Z 12011KT 29/19 A2963 RMK A01 T02920185  RH  052%=      5-min Rain = 0
KHA3 250046Z 12011KT 29/18 A2963 RMK A01 T02920184  RH  052%=      5-min Rain = 0
KHA3 250047Z 12009KT 29/18 A2963 RMK A01 T02920184  RH  052%=      5-min Rain = 0
KHA3 250048Z 11009KT 29/18 A2963 RMK A01 T02910184  RH  053%=      5-min Rain = 0
KHA3 250049Z 11010KT 29/18 A2963 RMK A01 T02900184  RH  053%=      5-min Rain = 0
KHA3 250050Z 11010KT 29/18 A2963 RMK A01 T02900183  RH  053%=      5-min Rain = 0
KHA3 250051Z 11011KT 29/18 A2962 RMK A01 T02900182  RH  052%=      5-min Rain = 0
KHA3 250052Z 11010KT 29/18 A2962 RMK A01 T02900182  RH  052%=      5-min Rain = 0
KHA3 250053Z 11009KT 29/18 A2962 RMK A01 T02900182  RH  052%=      5-min Rain = 0
KHA3 250054Z 11010KT 29/18 A2962 RMK A01 T02890183  RH  053%=      5-min Rain = 0
KHA3 250055Z 11009KT 29/18 A2962 RMK A01 T02890182  RH  053%=      5-min Rain = 0
KHA3 250056Z 12010KT 29/18 A2963 RMK A01 T02880182  RH  053%=      5-min Rain = 0
KHA3 250057Z 12010KT 29/18 A2963 RMK A01 T02880181  RH  052%=      5-min Rain = 0
KHA3 250058Z 12009KT 29/18 A2963 RMK A01 T02890180  RH  052%=      5-min Rain = 0
KHA3 250059Z 12008KT 29/18 A2964 RMK A01 T02890181  RH  052%=      5-min Rain = 0
KHA3 250100Z 12009KT 29/18 A2964 RMK A01 T02890182  RH  052%=      5-min Rain = 0
KHA3 250101Z 12009KT 29/18 A2964 RMK A01 T02880181  RH  053%=      5-min Rain = 0
KHA3 250102Z 12009KT 29/18 A2964 RMK A01 T02880182  RH  053%=      5-min Rain = 0
KHA3 250103Z 12009KT 29/18 A2964 RMK A01 T02870181  RH  053%=      5-min Rain = 0
KHA3 250104Z 12010KT 29/18 A2964 RMK A01 T02870181  RH  053%=      5-min Rain = 0
KHA3 250105Z 13008KT 29/18 A2964 RMK A01 T02870182  RH  053%=      5-min Rain = 0
KHA3 250106Z 12009KT 29/18 A2964 RMK A01 T02870182  RH  053%=      5-min Rain = 0
KHA3 250107Z 12009KT 29/18 A2965 RMK A01 T02860182  RH  053%=      5-min Rain = 0
KHA3 250108Z 11010KT 29/18 A2965 RMK A01 T02860183  RH  054%=      5-min Rain = 0
KHA3 250109Z 11017G24KT 29/18 A2965 RMK A01 T02850182  RH  054%=      5-min Rain = 0
KHA3 250110Z 12024G31KT 29/18 A2965 RMK A01 T02850184  RH  054%=      5-min Rain = 0
KHA3 250111Z 11025G30KT 29/19 A2965 RMK A01 T02850187  RH  055%=      5-min Rain = 0
KHA3 250112Z 12023G30KT 28/19 A2966 RMK A01 T02830189  RH  057%=      5-min Rain = 0
KHA3 250113Z 12025G32KT 28/19 A2966 RMK A01 T02800191  RH  058%=      5-min Rain = 0
KHA3 250114Z 12025KT 28/19 A2966 RMK A01 T02750192  RH  061%=      5-min Rain = 0
KHA3 250115Z 12025G33KT 27/19 A2967 RMK A01 T02700192  RH  062%=      5-min Rain = 0
KHA3 250116Z 13024G31KT 27/19 A2967 RMK A01 T02660192  RH  064%=      5-min Rain = 0
KHA3 250117Z 13022G28KT 26/19 A2967 RMK A01 T02620192  RH  065%=      5-min Rain = 0
KHA3 250118Z 13022KT 26/19 A2967 RMK A01 T02600191  RH  066%=      5-min Rain = 0
KHA3 250119Z 13020KT 26/19 A2967 RMK A01 T02580190  RH  066%=      5-min Rain = 0
KHA3 250120Z 13018G23KT 26/19 A2968 RMK A01 T02570190  RH  067%=      5-min Rain = 0
KHA3 250121Z 13017KT 26/19 A2967 RMK A01 T02550190  RH  067%=      5-min Rain = 0
KHA3 250122Z 12016KT 25/19 A2967 RMK A01 T02540190  RH  068%=      5-min Rain = 0
KHA3 250123Z 12017KT 25/19 A2967 RMK A01 T02530190  RH  068%=      5-min Rain = 0
KHA3 250124Z 11021KT 25/19 A2967 RMK A01 T02520189  RH  068%=      5-min Rain = 0
KHA3 250125Z 12023KT 25/19 A2967 RMK A01 T02510189  RH  068%=      5-min Rain = 0
KHA3 250126Z 11022KT 25/19 A2967 RMK A01 T02500188  RH  068%=      5-min Rain = 0
KHA3 250127Z 12019KT 25/19 A2967 RMK A01 T02490188  RH  069%=      5-min Rain = 0
KHA3 250128Z 11019G24KT 25/19 A2967 RMK A01 T02480188  RH  069%=      5-min Rain = 0
KHA3 250129Z 12022KT 25/19 A2967 RMK A01 T02470188  RH  070%=      5-min Rain = 0
KHA3 250130Z 12020KT 25/19 A2967 RMK A01 T02470188  RH  070%=      5-min Rain = 0
KHA3 250131Z 12016KT 25/19 A2968 RMK A01 T02470189  RH  070%=      5-min Rain = 0
KHA3 250132Z 13015KT 25/19 A2968 RMK A01 T02460189  RH  070%=      5-min Rain = 0
KHA3 250133Z 13014KT 25/19 A2968 RMK A01 T02460189  RH  071%=      5-min Rain = 0
KHA3 250134Z 13014KT 25/19 A2969 RMK A01 T02450189  RH  071%=      5-min Rain = 0
KHA3 250135Z 13013G19KT 25/19 A2969 RMK A01 T02450189  RH  071%=      5-min Rain = 0
KHA3 250136Z 14017KT 25/19 A2968 RMK A01 T02450189  RH  071%=      5-min Rain = 0
KHA3 250137Z 14019G25KT 24/19 A2968 RMK A01 T02440189  RH  071%=      5-min Rain = 0
KHA3 250138Z 13016KT 24/19 A2968 RMK A01 T02440189  RH  071%=      5-min Rain = 0
KHA3 250139Z 14016KT 24/19 A2969 RMK A01 T02430189  RH  072%=      5-min Rain = 0
KHA3 250140Z 13015G20KT 24/19 A2969 RMK A01 T02420189  RH  072%=      5-min Rain = 0
KHA3 250141Z 13014G19KT 24/19 A2969 RMK A01 T02420189  RH  072%=      5-min Rain = 0
KHA3 250142Z 13021KT 24/19 A2969 RMK A01 T02410189  RH  072%=      5-min Rain = 0
KHA3 250143Z 13018G23KT 24/19 A2969 RMK A01 T02410187  RH  072%=      5-min Rain = 0
KHA3 250144Z 14017KT 24/19 A297 RMK A01 T02400187  RH  072%=      5-min Rain = 0
KHA3 250145Z 14015KT 24/19 A297 RMK A01 T02400188  RH  073%=      5-min Rain = 0
KHA3 250146Z 13016KT 24/19 A297 RMK A01 T02390188  RH  073%=      5-min Rain = 0
KHA3 250147Z 14018KT 24/19 A2971 RMK A01 T02390187  RH  073%=      5-min Rain = 0
KHA3 250148Z 14014G19KT 24/19 A2971 RMK A01 T02380188  RH  074%=      5-min Rain = 0
KHA3 250149Z 14015KT 24/19 A2972 RMK A01 T02370188  RH  074%=      5-min Rain = 0
KHA3 250150Z 16013KT 24/19 A2973 RMK A01 T02370189  RH  074%=      5-min Rain = 0
KHA3 250151Z 20011KT 24/19 A2975 RMK A01 T02360191  RH  076%=      5-min Rain = 0
KHA3 250152Z 25016G22KT 24/19 A2978 RMK A01 T02350191  RH  076%=      5-min Rain = 0
KHA3 250153Z 26024G30KT 24/19 A2979 RMK A01 T02370192  RH  076%=      5-min Rain = 0
KHA3 250154Z 26031KT 24/16 A298 RMK A01 T02370157  RH  061%=      5-min Rain = 0
KHA3 250155Z 26031G37KT 23/13 A298 RMK A01 T02300134  RH  055%=      5-min Rain = 0
KHA3 250156Z 26029G35KT 22/14 A298 RMK A01 T02180144  RH  063%=      5-min Rain = 0
KHA3 250157Z 26031G37KT 20/15 A298 RMK A01 T02030148  RH  071%=      5-min Rain = 0
KHA3 250158Z 26031KT 19/15 A298 RMK A01 T01910149  RH  076%=      5-min Rain = 0
KHA3 250159Z 26027G32KT 18/15 A2981 RMK A01 T01840151  RH  081%=      5-min Rain = 0
KHA3 250200Z 25027KT 18/15 A2981 RMK A01 T01780150  RH  083%=      5-min Rain = 0.01
KHA3 250201Z 25021KT 18/15 A2981 RMK A01 T01750150  RH  085%=      5-min Rain = 0
KHA3 250202Z 26019KT 17/15 A2981 RMK A01 T01730149  RH  086%=      5-min Rain = 0
KHA3 250203Z 25017KT 17/15 A2981 RMK A01 T01710149  RH  087%=      5-min Rain = 0.01
KHA3 250204Z 26017KT 17/15 A2981 RMK A01 T01700149  RH  087%=      5-min Rain = 0
KHA3 250205Z 24012KT 17/15 A298 RMK A01 T01690149  RH  088%=      5-min Rain = 0.01
KHA3 250206Z 24016KT 17/15 A298 RMK A01 T01670151  RH  090%=      5-min Rain = 0
KHA3 250207Z 23018G23KT 17/15 A298 RMK A01 T01660150  RH  091%=      5-min Rain = 0.01
KHA3 250208Z 23022KT 16/15 A2979 RMK A01 T01630149  RH  091%=      5-min Rain = 0.01
KHA3 250209Z 24020KT 16/15 A2979 RMK A01 T01620149  RH  092%=      5-min Rain = 0.01
KHA3 250210Z 25021KT 16/15 A2978 RMK A01 T01610149  RH  093%=      5-min Rain = 0.03
KHA3 250211Z 26019KT 16/15 A2978 RMK A01 T01600150  RH  094%=      5-min Rain = 0.02
KHA3 250212Z 26018KT 16/15 A2977 RMK A01 T01580150  RH  095%=      5-min Rain = 0.02
KHA3 250213Z 27018KT 16/15 A2976 RMK A01 T01570150  RH  096%=      5-min Rain = 0.02
KHA3 250214Z 27016KT 16/15 A2975 RMK A01 T01560150  RH  096%=      5-min Rain = 0.01
KHA3 250215Z 28015G21KT 16/15 A2975 RMK A01 T01560151  RH  097%=      5-min Rain = 0.01
KHA3 250216Z 28017KT 16/15 A2975 RMK A01 T01560152  RH  098%=      5-min Rain = 0.01
KHA3 250217Z 28014KT 16/15 A2976 RMK A01 T01550152  RH  098%=      5-min Rain = 0.02
KHA3 250218Z 27015KT 16/15 A2977 RMK A01 T01550152  RH  099%=      5-min Rain = 0
KHA3 250219Z 27013KT 16/15 A2977 RMK A01 T01550153  RH  099%=      5-min Rain = 0.01
KHA3 250220Z 26012KT 16/16 A2978 RMK A01 T01550155  RH  100%=      5-min Rain = 0
KHA3 250221Z 25011KT 16/16 A2979 RMK A01 T01560156  RH  100%=      5-min Rain = 0.01
KHA3 250222Z 25009KT 16/16 A2979 RMK A01 T01560156  RH  100%=      5-min Rain = 0.01
KHA3 250223Z 25008KT 16/16 A2979 RMK A01 T01570157  RH  100%=      5-min Rain = 0.01
KHA3 250224Z 25007KT 16/16 A2979 RMK A01 T01570157  RH  100%=      5-min Rain = 0.01
KHA3 250225Z 25007KT 16/16 A2979 RMK A01 T01570157  RH  100%=      5-min Rain = 0.01
KHA3 250226Z 22006KT 16/16 A2979 RMK A01 T01560156  RH  100%=      5-min Rain = 0.01
KHA3 250227Z 22006KT 16/15 A2979 RMK A01 T01570154  RH  098%=      5-min Rain = 0.02
KHA3 250228Z 24005KT 16/15 A298 RMK A01 T01570151  RH  096%=      5-min Rain = 0
KHA3 250229Z 22005KT 16/15 A298 RMK A01 T01570150  RH  095%=      5-min Rain = 0.01
KHA3 250230Z 23004KT 16/15 A298 RMK A01 T01570149  RH  095%=      5-min Rain = 0.01
KHA3 250231Z 24004KT 16/15 A298 RMK A01 T01580149  RH  094%=      5-min Rain = 0
KHA3 250232Z 22003KT 16/15 A298 RMK A01 T01590150  RH  095%=      5-min Rain = 0.01
KHA3 250233Z 25003KT 16/15 A2981 RMK A01 T01590150  RH  095%=      5-min Rain = 0
KHA3 250234Z 25004KT 16/15 A2981 RMK A01 T01590152  RH  095%=      5-min Rain = 0
KHA3 250235Z 24004KT 16/15 A2981 RMK A01 T01590150  RH  094%=      5-min Rain = 0
KHA3 250236Z 23003KT 16/15 A2981 RMK A01 T01590150  RH  094%=      5-min Rain = 0.01
KHA3 250237Z 21002KT 16/15 A2982 RMK A01 T01600150  RH  094%=      5-min Rain = 0
KHA3 250238Z 21002KT 16/15 A2982 RMK A01 T01600150  RH  094%=      5-min Rain = 0
KHA3 250239Z 21003KT 16/15 A2982 RMK A01 T01600150  RH  094%=      5-min Rain = 0
KHA3 250240Z 18003KT 16/15 A2982 RMK A01 T01600150  RH  094%=      5-min Rain = 0
KHA3 250241Z 18003KT 16/15 A2983 RMK A01 T01600150  RH  094%=      5-min Rain = 0.01
KHA3 250242Z 18004KT 16/15 A2983 RMK A01 T01600151  RH  095%=      5-min Rain = 0
KHA3 250243Z 19004KT 16/15 A2983 RMK A01 T01600152  RH  095%=      5-min Rain = 0
KHA3 250244Z 19005KT 16/15 A2984 RMK A01 T01600152  RH  095%=      5-min Rain = 0
KHA3 250245Z 20006KT 16/15 A2984 RMK A01 T01600152  RH  095%=      5-min Rain = 0
KHA3 250246Z 22007KT 16/15 A2984 RMK A01 T01610153  RH  095%=      5-min Rain = 0.01
KHA3 250247Z 22007KT 16/15 A2984 RMK A01 T01620153  RH  095%=      5-min Rain = 0
KHA3 250248Z 22009KT 16/15 A2984 RMK A01 T01630152  RH  094%=      5-min Rain = 0
KHA3 250249Z 23010KT 16/15 A2984 RMK A01 T01640152  RH  093%=      5-min Rain = 0
KHA3 250250Z 23009KT 17/15 A2984 RMK A01 T01660153  RH  092%=      5-min Rain = 0
KHA3 250251Z 23012KT 17/15 A2984 RMK A01 T01670153  RH  092%=      5-min Rain = 0.01
KHA3 250252Z 23012KT 17/15 A2984 RMK A01 T01670153  RH  091%=      5-min Rain = 0
KHA3 250253Z 23014KT 17/15 A2984 RMK A01 T01680152  RH  091%=      5-min Rain = 0
KHA3 250254Z 23013KT 17/15 A2983 RMK A01 T01690152  RH  090%=      5-min Rain = 0.01
KHA3 250255Z 23012KT 17/15 A2983 RMK A01 T01700154  RH  090%=      5-min Rain = 0
KHA3 250256Z 24012KT 17/16 A2983 RMK A01 T01700155  RH  091%=      5-min Rain = 0
KHA3 250257Z 24014KT 17/15 A2983 RMK A01 T01700154  RH  090%=      5-min Rain = 0.01
KHA3 250258Z 25016G21KT 17/15 A2982 RMK A01 T01710152  RH  089%=      5-min Rain = 0
KHA3 250259Z 25016KT 17/15 A2982 RMK A01 T01710151  RH  088%=      5-min Rain = 0
KHA3 250300Z 24014KT 17/15 A2982 RMK A01 T01720153  RH  088%=      5-min Rain = 0
KHA3 250301Z 25014KT 17/15 A2982 RMK A01 T01720153  RH  088%=      5-min Rain = 0.01
KHA3 250302Z 24014KT 17/15 A2982 RMK A01 T01720154  RH  089%=      5-min Rain = 0
KHA3 250303Z 24012KT 17/15 A2982 RMK A01 T01720154  RH  089%=      5-min Rain = 0
KHA3 250304Z 24013KT 17/15 A2982 RMK A01 T01710154  RH  090%=      5-min Rain = 0
KHA3 250305Z 23013KT 17/15 A2982 RMK A01 T01710154  RH  090%=      5-min Rain = 0
KHA3 250306Z 23012KT 17/15 A2982 RMK A01 T01700154  RH  090%=      5-min Rain = 0.01
KHA3 250307Z 23012KT 17/15 A2983 RMK A01 T01700154  RH  090%=      5-min Rain = 0
KHA3 250308Z 23011KT 17/15 A2983 RMK A01 T01700154  RH  090%=      5-min Rain = 0
KHA3 250309Z 23012KT 17/16 A2983 RMK A01 T01710156  RH  091%=      5-min Rain = 0
KHA3 250310Z 23009KT 17/16 A2983 RMK A01 T01710156  RH  091%=      5-min Rain = 0.01
KHA3 250311Z 22009KT 17/16 A2983 RMK A01 T01710157  RH  091%=      5-min Rain = 0
KHA3 250312Z 22009KT 17/16 A2983 RMK A01 T01700156  RH  091%=      5-min Rain = 0
KHA3 250313Z 21008KT 17/16 A2983 RMK A01 T01700156  RH  092%=      5-min Rain = 0
KHA3 250314Z 20009KT 17/16 A2983 RMK A01 T01690156  RH  092%=      5-min Rain = 0
KHA3 250315Z 20009KT 17/16 A2983 RMK A01 T01700156  RH  092%=      5-min Rain = 0
KHA3 250316Z 19009KT 17/16 A2983 RMK A01 T01690157  RH  093%=      5-min Rain = 0.01
KHA3 250317Z 18008KT 17/16 A2983 RMK A01 T01690157  RH  093%=      5-min Rain = 0
KHA3 250318Z 18008KT 17/16 A2983 RMK A01 T01690157  RH  093%=      5-min Rain = 0
KHA3 250319Z 18008KT 17/16 A2983 RMK A01 T01680157  RH  093%=      5-min Rain = 0
KHA3 250320Z 17007KT 17/16 A2984 RMK A01 T01680157  RH  093%=      5-min Rain = 0
KHA3 250321Z 17006KT 17/16 A2984 RMK A01 T01680157  RH  094%=      5-min Rain = 0
KHA3 250322Z 18007KT 17/16 A2984 RMK A01 T01680157  RH  093%=      5-min Rain = 0
KHA3 250323Z 19007KT 17/16 A2984 RMK A01 T01680157  RH  094%=      5-min Rain = 0
KHA3 250324Z 20007KT 17/16 A2984 RMK A01 T01680157  RH  093%=      5-min Rain = 0.01
KHA3 250325Z 20007KT 17/16 A2984 RMK A01 T01700158  RH  092%=      5-min Rain = 0
KHA3 250326Z 21006KT 17/16 A2984 RMK A01 T01700156  RH  092%=      5-min Rain = 0
KHA3 250327Z 21005KT 17/16 A2984 RMK A01 T01710158  RH  092%=      5-min Rain = 0
KHA3 250328Z 21006KT 17/16 A2984 RMK A01 T01720158  RH  091%=      5-min Rain = 0
KHA3 250329Z 20006KT 17/16 A2984 RMK A01 T01720158  RH  091%=      5-min Rain = 0.01
KHA3 250330Z 20007KT 17/16 A2984 RMK A01 T01720158  RH  091%=      5-min Rain = 0
KHA3 250331Z 19007KT 17/16 A2984 RMK A01 T01730159  RH  091%=      5-min Rain = 0
KHA3 250332Z 18007KT 17/16 A2984 RMK A01 T01720160  RH  092%=      5-min Rain = 0
KHA3 250333Z 17007KT 17/16 A2984 RMK A01 T01730160  RH  092%=      5-min Rain = 0.01
KHA3 250334Z 17007KT 17/16 A2984 RMK A01 T01720160  RH  092%=      5-min Rain = 0
KHA3 250335Z 17007KT 17/16 A2984 RMK A01 T01720160  RH  093%=      5-min Rain = 0
KHA3 250336Z 17006KT 17/16 A2984 RMK A01 T01720160  RH  093%=      5-min Rain = 0
KHA3 250337Z 17007KT 17/16 A2984 RMK A01 T01710160  RH  093%=      5-min Rain = 0
KHA3 250338Z 18006KT 17/16 A2984 RMK A01 T01720161  RH  093%=      5-min Rain = 0.01
KHA3 250339Z 19006KT 17/16 A2984 RMK A01 T01720160  RH  093%=      5-min Rain = 0
KHA3 250340Z 19006KT 17/16 A2984 RMK A01 T01720161  RH  093%=      5-min Rain = 0
KHA3 250341Z 19007KT 17/16 A2984 RMK A01 T01710160  RH  093%=      5-min Rain = 0
KHA3 250342Z 20006KT 17/16 A2984 RMK A01 T01720161  RH  093%=      5-min Rain = 0.01
KHA3 250343Z 20007KT 17/16 A2984 RMK A01 T01710160  RH  093%=      5-min Rain = 0
KHA3 250344Z 21005KT 17/16 A2984 RMK A01 T01720159  RH  093%=      5-min Rain = 0.01
KHA3 250345Z 24004KT 17/16 A2984 RMK A01 T01710159  RH  093%=      5-min Rain = 0
KHA3 250346Z 28001KT 17/16 A2984 RMK A01 T01720161  RH  093%=      5-min Rain = 0.01
KHA3 250347Z 34005KT 17/16 A2984 RMK A01 T01720161  RH  093%=      5-min Rain = 0
KHA3 250348Z 33007KT 17/16 A2985 RMK A01 T01720163  RH  095%=      5-min Rain = 0
KHA3 250349Z 33008KT 17/16 A2985 RMK A01 T01720164  RH  096%=      5-min Rain = 0.01
KHA3 250350Z 34008KT 17/16 A2985 RMK A01 T01700164  RH  096%=      5-min Rain = 0
KHA3 250351Z 35007KT 17/16 A2985 RMK A01 T01700164  RH  096%=      5-min Rain = 0.01
KHA3 250352Z 35007KT 17/16 A2985 RMK A01 T01690163  RH  097%=      5-min Rain = 0
KHA3 250353Z 35005KT 17/16 A2985 RMK A01 T01680163  RH  097%=      5-min Rain = 0.01
KHA3 250354Z 35005KT 17/16 A2985 RMK A01 T01680162  RH  096%=      5-min Rain = 0
KHA3 250355Z 35005KT 17/16 A2985 RMK A01 T01680162  RH  097%=      5-min Rain = 0.01
KHA3 250356Z 36005KT 17/16 A2985 RMK A01 T01680163  RH  097%=      5-min Rain = 0
KHA3 250357Z 00005KT 17/16 A2985 RMK A01 T01680164  RH  097%=      5-min Rain = 0.01
KHA3 250358Z 01005KT 17/16 A2985 RMK A01 T01670164  RH  098%=      5-min Rain = 0
KHA3 250359Z 01005KT 17/16 A2985 RMK A01 T01670164  RH  098%=      5-min Rain = 0.01
KHA3 250400Z 01006KT 17/17 A2985 RMK A01 T01670165  RH  098%=      5-min Rain = 0
KHA3 250401Z 02006KT 17/17 A2985 RMK A01 T01670166  RH  099%=      5-min Rain = 0.01
KHA3 250402Z 02007KT 17/17 A2985 RMK A01 T01670167  RH  100%=      5-min Rain = 0.01
KHA3 250403Z 02006KT 17/17 A2985 RMK A01 T01670166  RH  100%=      5-min Rain = 0
KHA3 250404Z 02006KT 17/17 A2985 RMK A01 T01660166  RH  100%=      5-min Rain = 0.01
KHA3 250405Z 02007KT 17/17 A2985 RMK A01 T01660166  RH  100%=      5-min Rain = 0.01
KHA3 250406Z 02008KT 17/17 A2985 RMK A01 T01660166  RH  100%=      5-min Rain = 0
KHA3 250407Z 02007KT 17/17 A2985 RMK A01 T01660166  RH  100%=      5-min Rain = 0.01
KHA3 250408Z 02007KT 17/17 A2985 RMK A01 T01660167  RH  100%=      5-min Rain = 0.01
KHA3 250409Z 02007KT 17/17 A2985 RMK A01 T01660166  RH  100%=      5-min Rain = 0
KHA3 250410Z 02007KT 17/17 A2985 RMK A01 T01660166  RH  100%=      5-min Rain = 0.01
KHA3 250411Z 01006KT 17/17 A2986 RMK A01 T01660167  RH  100%=      5-min Rain = 0.01
KHA3 250412Z 00008KT 17/17 A2986 RMK A01 T01660167  RH  100%=      5-min Rain = 0
KHA3 250413Z 01009KT 17/17 A2986 RMK A01 T01660166  RH  100%=      5-min Rain = 0.01
KHA3 250414Z 01010KT 17/17 A2986 RMK A01 T01660166  RH  100%=      5-min Rain = 0.01
KHA3 250415Z 01011KT 17/17 A2986 RMK A01 T01650165  RH  100%=      5-min Rain = 0.01
KHA3 250416Z 01011KT 17/17 A2986 RMK A01 T01650165  RH  100%=      5-min Rain = 0.01
KHA3 250417Z 01011KT 17/17 A2986 RMK A01 T01650165  RH  100%=      5-min Rain = 0
KHA3 250418Z 01013KT 16/16 A2986 RMK A01 T01640164  RH  100%=      5-min Rain = 0.01
KHA3 250419Z 01012KT 16/16 A2986 RMK A01 T01640164  RH  100%=      5-min Rain = 0.01
KHA3 250420Z 01011KT 16/16 A2986 RMK A01 T01630163  RH  100%=      5-min Rain = 0.01
KHA3 250421Z 00011KT 16/16 A2986 RMK A01 T01630163  RH  100%=      5-min Rain = 0.01
KHA3 250422Z 01010KT 16/16 A2986 RMK A01 T01630163  RH  100%=      5-min Rain = 0
KHA3 250423Z 00012KT 16/16 A2986 RMK A01 T01630163  RH  100%=      5-min Rain = 0.01
KHA3 250424Z 00013KT 16/16 A2986 RMK A01 T01630163  RH  100%=      5-min Rain = 0
KHA3 250425Z 00012KT 16/16 A2986 RMK A01 T01630163  RH  100%=      5-min Rain = 0.01
KHA3 250426Z 00012KT 16/16 A2986 RMK A01 T01630163  RH  100%=      5-min Rain = 0
KHA3 250427Z 00014KT 16/16 A2986 RMK A01 T01630163  RH  100%=      5-min Rain = 0.01
KHA3 250428Z 01012KT 16/16 A2986 RMK A01 T01630163  RH  100%=      5-min Rain = 0
KHA3 250429Z 01012KT 16/16 A2986 RMK A01 T01630163  RH  100%=      5-min Rain = 0.01
KHA3 250430Z 01012KT 16/16 A2986 RMK A01 T01630163  RH  100%=      5-min Rain = 0
KHA3 250431Z 01013KT 16/16 A2986 RMK A01 T01630163  RH  100%=      5-min Rain = 0.01
KHA3 250432Z 01013KT 16/16 A2987 RMK A01 T01630163  RH  100%=      5-min Rain = 0
KHA3 250433Z 01013KT 16/16 A2987 RMK A01 T01630163  RH  100%=      5-min Rain = 0
KHA3 250434Z 01013KT 16/16 A2987 RMK A01 T01640163  RH  099%=      5-min Rain = 0.01
KHA3 250435Z 01015KT 16/16 A2987 RMK A01 T01640163  RH  099%=      5-min Rain = 0
KHA3 250436Z 02016KT 16/16 A2987 RMK A01 T01640161  RH  099%=      5-min Rain = 0.01
KHA3 250437Z 01014KT 16/16 A2987 RMK A01 T01630160  RH  098%=      5-min Rain = 0
KHA3 250438Z 02013KT 16/16 A2987 RMK A01 T01640159  RH  097%=      5-min Rain = 0.01
KHA3 250439Z 02014KT 16/16 A2987 RMK A01 T01640159  RH  097%=      5-min Rain = 0
KHA3 250440Z 02014KT 16/16 A2987 RMK A01 T01640159  RH  097%=      5-min Rain = 0.01
KHA3 250441Z 02016KT 16/16 A2987 RMK A01 T01640159  RH  097%=      5-min Rain = 0
KHA3 250442Z 02016KT 16/16 A2987 RMK A01 T01640159  RH  097%=      5-min Rain = 0
KHA3 250443Z 02014G20KT 16/16 A2987 RMK A01 T01640159  RH  097%=      5-min Rain = 0.01
KHA3 250444Z 02018KT 16/16 A2987 RMK A01 T01640160  RH  097%=      5-min Rain = 0
KHA3 250445Z 02015KT 17/16 A2987 RMK A01 T01650160  RH  097%=      5-min Rain = 0.01
KHA3 250446Z 02015KT 16/16 A2987 RMK A01 T01640159  RH  097%=      5-min Rain = 0
KHA3 250447Z 02015KT 16/16 A2987 RMK A01 T01640159  RH  097%=      5-min Rain = 0.01
KHA3 250448Z 03014KT 16/16 A2987 RMK A01 T01640159  RH  097%=      5-min Rain = 0
KHA3 250449Z 02016KT 16/16 A2987 RMK A01 T01640159  RH  097%=      5-min Rain = 0
KHA3 250450Z 03017KT 16/16 A2987 RMK A01 T01640159  RH  097%=      5-min Rain = 0.01
KHA3 250451Z 02016KT 17/16 A2987 RMK A01 T01650159  RH  097%=      5-min Rain = 0.01
KHA3 250452Z 02017KT 16/16 A2987 RMK A01 T01640159  RH  097%=      5-min Rain = 0
KHA3 250453Z 02016G21KT 17/16 A2987 RMK A01 T01650160  RH  097%=      5-min Rain = 0
KHA3 250454Z 03016KT 17/16 A2987 RMK A01 T01650160  RH  097%=      5-min Rain = 0.01
KHA3 250455Z 03017KT 17/16 A2987 RMK A01 T01650160  RH  097%=      5-min Rain = 0
KHA3 250456Z 03016KT 17/16 A2987 RMK A01 T01650160  RH  097%=      5-min Rain = 0
KHA3 250457Z 03018KT 17/16 A2987 RMK A01 T01650160  RH  097%=      5-min Rain = 0.01
KHA3 250458Z 03019KT 17/16 A2988 RMK A01 T01650160  RH  097%=      5-min Rain = 0
KHA3 250459Z 03019KT 17/16 A2988 RMK A01 T01650159  RH  097%=      5-min Rain = 0

Page generated in 0.0709 seconds.